2013 Detroit Women's Half Marathon and 5K

back to results

Sep. 22, 2013

2013 Detroit Women's Half Marathon and 5K
Detroit, MI
Provided by Race Timing Services



Detroit Womens Half Marathon and 5K Half Marathon
Age Group Results
September 22, 2013
Results Provided by Race Timing Services

Female Open Winners

Place Name City Age Overall Total Time Pace
1 Beth Woodward Orrville OH 38 1 1:28:46 6:47/M
2 Amanda Kohlmeier Detroit MI 29 2 1:28:51 6:47/M
3 Shannon Kohlitz Ann Arbor MI 25 3 1:30:56 6:56/M

Female Master Winners

Place Name City Age Overall Total Time Pace
1 Linda Sawvell Washington Township MI 48 4 1:33:15 7:07/M

Female Grand Master Winners

Place Name City Age Overall Total Time Pace
1 Angie Smith Sarnia ON 53 10 1:36:13 7:21/M

Female 19 & Under

Place Name City Age Overall Total Time Pace
1 Siobhan Smith Sarnia ON 19 30 1:45:43 8:04/M
2 Kasey Smith Oxford MI 18 76 1:54:07 8:43/M
3 Rachel Spencer Troy MI 19 121 1:58:21 9:02/M
4 Julia Esposito Morristown NJ 19 261 2:10:17 9:57/M
5 Julia Ebben Orion MI 15 271 2:10:43 9:59/M
6 Paige Kelly Ann Arbor MI 19 286 2:12:15 10:06/M
7 Lauren Mertens Longmeadow MA 19 287 2:12:15 10:06/M
8 Sophia Tapper Potomac MD 19 290 2:12:27 10:07/M
9 Abby Commarford Troy MI 18 299 2:12:58 10:09/M
10 Emily Thomas Ann Arbor MI 19 327 2:15:17 10:20/M
11 Nicole Nalazek Saginaw MI 18 367 2:18:48 10:36/M
12 Melissa-Anne Giles Ypsilanti MI 18 413 2:23:15 10:56/M
13 Briana Powell Warren MI 14 437 2:26:35 11:11/M
14 Marilou Venglarcik Petersburg MI 18 657 3:17:59 15:07/M
15 Katie Demaagd Woodland MI 14 681 3:34:47 16:24/M

Female 20 to 24

Place Name City Age Overall Total Time Pace
1 Cristina Perez Grand Haven MI 20 9 1:35:44 7:18/M
2 Sarah Campbell Ann Arbor MI 21 21 1:43:10 7:53/M
3 Rayshawnda Temple Detroit MI 22 37 1:47:32 8:13/M
4 Joanna Dattilo Allen Park MI 23 63 1:51:50 8:32/M
5 Joanne Weber Northivlle MI 20 69 1:52:11 8:34/M
6 Clara Reini Clarkston MI 21 73 1:53:14 8:39/M
7 Sarah Hilu Grosse Pointe Woods MI 22 81 1:54:57 8:46/M
8 Elizabeth Bastian Royal Oak MI 21 99 1:55:51 8:51/M
9 Becky Bereswill Ann Arbor MI 22 133 1:59:01 9:05/M
10 Lindsey Johnson Plymouth MI 23 144 2:00:12 9:11/M
11 Xiomara Rodriguez-Alvarez Oxford MI 21 153 2:01:11 9:15/M
12 Kathryn Dickmann Battle Creek MI 22 162 2:01:36 9:17/M
13 Rebecca Gimpert Grosse Pointe Woods MI 22 190 2:04:30 9:30/M
14 Amelia Kelly Denver CO 22 192 2:04:33 9:30/M
15 Brittany Venglarcik Ferndale MI 23 206 2:05:57 9:37/M
16 Chelsea Schultz Sterling Heights MI 24 213 2:06:22 9:39/M
17 Elizabeth Spencer Berkley MI 24 214 2:06:38 9:40/M
18 Diana Ticu 24 216 2:06:46 9:41/M
19 Alyssa Gerth Athens OH 22 231 2:07:46 9:45/M
20 Jessica Choi Ann Arbor MI 20 236 2:07:59 9:46/M
21 Rachel Harrison Royal Oak MI 24 254 2:09:36 9:54/M
22 Ryan Arey Parma MI 24 256 2:09:48 9:55/M
23 Kala Mapes Wixom MI 23 257 2:09:49 9:55/M
24 Emily Smith Ann Arbor MI 24 258 2:10:03 9:56/M
25 Rachel Humberson Saline OH 22 270 2:10:38 9:58/M
26 Jeanette Manto Washington MI 23 278 2:11:19 10:01/M
27 Tara Patrick Warren MI 23 283 2:11:53 10:04/M
28 Kalli Barrone Lake Odessa MI 20 331 2:15:32 10:21/M
29 Jordan Richter Canton MI 20 350 2:17:17 10:29/M
30 Kristin Fiscus Novi MI 23 363 2:18:21 10:34/M
31 Julie Huddlestone St. Clair Shores MI 22 366 2:18:41 10:35/M
32 Sarah Morris South Lyon MI 21 401 2:22:01 10:50/M
33 Lauren Knoles Livonia MI 24 408 2:22:56 10:55/M
34 Mariah Fiorillo Detroit MI 22 410 2:22:57 10:55/M
35 Tiffany Knaak Detroit MI 21 430 2:25:35 11:07/M
36 Amanda Stark St. Clair Shores MI 24 435 2:26:25 11:11/M
37 Jessica Genord Grand Blanc MI 22 458 2:27:31 11:16/M
38 Chelsea Early Canton MI 21 465 2:28:24 11:20/M
39 Caroline Dobbins Detroit MI 23 472 2:29:07 11:23/M
40 Kylie Atkinson Carleton MI 24 476 2:29:51 11:26/M
41 Emily Esbrook Novi MI 24 505 2:33:33 11:43/M
42 Bridget Reno Grosse Pointe Woods MI 23 516 2:34:33 11:48/M
43 Cjersti Jensen Grosse Ile MI 21 548 2:40:52 12:17/M
44 Ashley Szpanelewski 24 586 2:50:54 13:03/M
45 Elizabeth Kilpatrick Grosse Ile MI 22 589 2:51:18 13:05/M
46 Sarah Eckles Pennsauken NJ 21 633 3:06:44 14:15/M
47 Christina Stickney Lake Orion MI 24 646 3:12:28 14:42/M
48 Haley Roths Saint Clair Shores MI 24 667 3:26:08 15:44/M
49 Kristina Avigai Doctor St Clair Shores MI 24 689 3:50:59 17:38/M

Female 25 to 29

Place Name City Age Overall Total Time Pace
1 Ashley Neuhaus Lake Orion MI 27 22 1:43:17 7:53/M
2 Marianne Grant Plymouth MI 28 47 1:49:00 8:19/M
3 Olivia Porterfield Ann Arbor MI 26 57 1:51:15 8:30/M
4 Lindsey Fediuk Plymouth MI 29 60 1:51:44 8:32/M
5 Jacquelyn Mondani Royal Oak MI 27 74 1:53:26 8:40/M
6 Karly Caudell Ann Arbor MI 25 75 1:54:04 8:42/M
7 Erin Morgan Northville MI 29 83 1:55:14 8:48/M
8 Jaclyn Suhy Santiago 28 88 1:55:28 8:49/M
9 Agata Dabrowska Ann Arbor MI 25 89 1:55:31 8:49/M
10 Jillian Wilson Ambrose Ann Arbor MI 28 91 1:55:32 8:49/M
11 Jessica Butzin Westland MI 29 105 1:56:38 8:54/M
12 Sarah Werk Taylor MI 28 111 1:57:19 8:57/M
13 Jennifer Wright Ypsilanti MI 27 112 1:57:19 8:57/M
14 Jennifer Magat Royal Oak MI 26 120 1:58:18 9:02/M
15 Heather Woolls Ypsilanti MI 29 132 1:58:59 9:05/M
16 Sarah Willoughby Birmingham MI 26 143 2:00:12 9:11/M
17 Lauren Burke Detroit MI 25 145 2:00:14 9:11/M
18 Elizabeth King 27 147 2:00:42 9:13/M
19 Veronica Taylor Ann Arbor MI 26 148 2:00:51 9:14/M
20 Ashley Melone Bloomfield Hills MI 27 151 2:01:08 9:15/M
21 Ashley Kung Ann Arbor MI 29 166 2:02:01 9:19/M
22 Sara Droze Northville MI 28 175 2:03:15 9:25/M
23 Alicia Curley Ypsilanti MI 27 181 2:03:39 9:26/M
24 Rachel Oberle Royal Oak MI 27 182 2:03:39 9:26/M
25 Sloane Jameson Royal Oak MI 26 183 2:03:52 9:27/M
26 Breana Wygant Grand Rapids MI 25 198 2:04:44 9:31/M
27 Natalie Dean Allen Park MI 26 211 2:06:16 9:38/M
28 Kaitlin Popielarz Royal Oak MI 25 218 2:06:46 9:41/M
29 Rachel Knorr Shelby Twp MI 27 220 2:06:51 9:41/M
30 Kristin McDonald Adrian MI 25 235 2:07:58 9:46/M
31 Stacey Metzger Trenton MI 29 239 2:08:28 9:48/M
32 Heather J Courtright Royal Oak MI 27 240 2:08:39 9:49/M
33 Megan Smith Plymouth MI 28 259 2:10:03 9:56/M
34 Emily Haller Ann Arbor MI 25 266 2:10:22 9:57/M
35 Amy Swope Ypsilanti MI 28 273 2:10:53 9:59/M
36 Marina Bakhmutsky Farmington Hills MI 27 291 2:12:29 10:07/M
37 Sara Sage Royal Oak MI 29 293 2:12:32 10:07/M
38 Andrea Grenier Macomb MI 27 297 2:12:35 10:07/M
39 Lisa Lopez Auburn Hills MI 27 301 2:13:22 10:11/M
40 Audry Niscoromni White Lake MI 27 308 2:13:44 10:13/M
41 Mollie McGuire Milan MI 27 310 2:13:45 10:13/M
42 Megan Oleary Canton MI 28 320 2:14:22 10:15/M
43 Liana Easterby Troy MI 26 325 2:14:55 10:18/M
44 Galen Dunleavy Novi MI 28 334 2:15:45 10:22/M
45 Liz Langs Grand Blanc MI 26 359 2:18:08 10:33/M
46 Ashley Leger Detroit MI 27 362 2:18:17 10:33/M
47 Jennifer Allen Walled Lake MI 29 365 2:18:28 10:34/M
48 Ashley Sullivan Dearborn Heights MI 29 374 2:19:07 10:37/M
49 Emily Desmet Ann Arbor MI 26 377 2:19:31 10:39/M
50 Sherri Kerry Farmington Hills MI 28 387 2:20:18 10:43/M
51 Sarah Escutia Warren MI 28 393 2:21:17 10:47/M
52 Amanda Baker Canton MI 29 394 2:21:21 10:47/M
53 Rebecca Spragg Royal Oak MI 29 396 2:21:33 10:48/M
54 Crystal Scott Farmington MI 26 411 2:23:13 10:56/M
55 Amanda Frank Berkley MI 27 417 2:23:53 10:59/M
56 Brenda Firestine Royal Oak MI 29 427 2:25:16 11:05/M
57 Jacqueline Dufek Ann Arbor MI 26 455 2:27:16 11:15/M
58 Heidi Phillips Ann Arbor MI 26 466 2:28:26 11:20/M
59 Melissa Anderson Plymouth MI 27 467 2:28:26 11:20/M
60 Courtney Sloat Bloomfield Hills MI 28 477 2:30:05 11:27/M
61 Lisa Utter Northville MI 27 478 2:30:11 11:28/M
62 Nicole Tschirhart Waterford MI 28 482 2:30:29 11:29/M
63 Megan Sunio Davison MI 28 488 2:31:51 11:35/M
64 Jessica McComb Davison MI 29 489 2:31:52 11:36/M
65 Hilary Powsner Grand Rapids MI 25 492 2:31:59 11:36/M
66 Greer Donley Ann Arbor MI 26 496 2:32:41 11:39/M
67 Christina Shimak Livonia MI 28 509 2:33:53 11:45/M
68 Christy Galardi 25 511 2:34:16 11:47/M
69 Patricia Hoeg Novi MI 25 512 2:34:17 11:47/M
70 Michelle Loomis Ann Arbor MI 25 522 2:35:19 11:51/M
71 Devon Dean Berkley MI 25 530 2:37:23 12:01/M
72 Ann Marie Lutfy Grosse Pointe Woods MI 28 534 2:37:51 12:03/M
73 Alison Ringler Swartz Creek MI 27 555 2:41:57 12:22/M
74 Amber Snider Flint MI 26 556 2:41:58 12:22/M
75 Lizzy Lutfy Grosse Pointe Woods MI 26 571 2:47:55 12:49/M
76 Robin Murphy Howell MI 26 581 2:49:41 12:57/M
77 Natalie Bedard Westland MI 29 591 2:51:28 13:05/M
78 Megann Dunham Fort Gratiot MI 27 595 2:52:39 13:11/M
79 Valerie Smith Novi MI 29 598 2:53:33 13:15/M
80 Stephanie Rosik Southfield MI 29 601 2:54:40 13:20/M
81 Olivia Mendoza Oak Park MI 25 604 2:55:19 13:23/M
82 Jennifer Welch Waterford MI 27 616 2:57:43 13:34/M
83 Nedene Monforton Stockbridge MI 26 624 2:59:00 13:40/M
84 Patricia Thompson Royal Oak MI 28 627 3:00:22 13:46/M
85 Rebecca Bridgnanan Dearborn MI 27 654 3:17:16 15:04/M
86 Clair Dela Cruz Warren MI 25 665 3:24:08 15:35/M
87 Kathlen Enal Warren MI 25 668 3:28:21 15:54/M

Female 30 to 34

Place Name City Age Overall Total Time Pace
1 Amanda Wolski Dearborn MI 32 5 1:33:23 7:08/M
2 Christine Robert Ann Arbor MI 32 7 1:35:15 7:16/M
3 Stefanie Hamm Superior Twp MI 31 13 1:39:12 7:34/M
4 Kimberly Kriesel Rochester Hills MI 34 14 1:40:49 7:42/M
5 Susie Mell Milford MI 33 20 1:42:49 7:51/M
6 Rheanne Suszek Detroit MI 30 29 1:44:51 8:00/M
7 Sadie Smith Royal Oak MI 34 31 1:46:08 8:06/M
8 Marie Morgan Ann Arbor MI 34 35 1:47:13 8:11/M
9 Erinn Merritt Westland MI 33 39 1:47:39 8:13/M
10 Susan Butcher Ann Arbor MI 34 51 1:50:07 8:24/M
11 Ashley Price New Hudson MI 30 58 1:51:29 8:31/M
12 Asia Renning Milan MI 32 59 1:51:33 8:31/M
13 Jonesta Heikkinen Jackson MI 32 68 1:52:07 8:34/M
14 Sarah Peterson Battle Creek MI 32 82 1:55:14 8:48/M
15 Hong Weng South Lyon MI 31 87 1:55:23 8:48/M
16 Emily Coles Big Rapids MI 31 100 1:55:53 8:51/M
17 Diana Balbaugh Clio MI 32 102 1:56:06 8:52/M
18 Tamara Roth Belmont MI 33 106 1:56:47 8:55/M
19 Lisa Florida Ann Arbor MI 33 108 1:57:07 8:56/M
20 Deneil Loftus Plymouth MI 31 116 1:57:42 8:59/M
21 Erin Sundt Rochester MI 32 117 1:57:53 9:00/M
22 Sarah Mabley Ann Arbor MI 30 125 1:58:38 9:03/M
23 Crista Owens Middle Point OH 34 127 1:58:39 9:03/M
24 Anne Thompson Ann Arbor MI 33 129 1:58:49 9:04/M
25 Catherine Christ Enid OK 32 131 1:58:55 9:05/M
26 Nicole Harden Milanm MI 30 134 1:59:03 9:05/M
27 Amanda Prince South Lyon MI 33 141 1:59:53 9:09/M
28 Liz Wright Hazel Park MI 34 142 2:00:10 9:10/M
29 Alex Vincenti New York NY 30 158 2:01:27 9:16/M
30 Katie Olex Plymouth MI 33 159 2:01:32 9:17/M
31 Elisa Miller Redford MI 33 165 2:01:47 9:18/M
32 Andrea Thelen North Branch MI 30 173 2:02:54 9:23/M
33 Laura Bentley Royal Oak MI 32 202 2:05:11 9:33/M
34 Talese Yensch Eastpointe MI 34 203 2:05:26 9:35/M
35 Amy Eddinger Big Rapids MI 32 215 2:06:39 9:40/M
36 Kimberley Balogh Grosse Ile MI 30 217 2:06:46 9:41/M
37 Melissa Stefanic Warren MI 30 224 2:06:59 9:42/M
38 Heidi Iglayreger Northville MI 34 229 2:07:42 9:45/M
39 Dana Wolford Ann Arbor MI 31 230 2:07:42 9:45/M
40 Kristin Deborde Royal Oak MI 33 233 2:07:57 9:46/M
41 Jessica Johnson Novi MI 30 237 2:08:06 9:47/M
42 Julie Anderson Whitmore Lake MI 31 241 2:08:43 9:50/M
43 Christa Hammond Bellefontaine OH 34 244 2:08:48 9:50/M
44 Laura Lewis Lake Orion MI 32 263 2:10:20 9:57/M
45 Kara Herber Ortonville MI 34 265 2:10:21 9:57/M
46 Susan Yang Novi MI 33 267 2:10:25 9:57/M
47 Becki Reppke Commerce MI 34 280 2:11:35 10:03/M
48 Emily Sickler Ann Arbor MI 32 285 2:12:11 10:05/M
49 Amanda Siggett Belleville MI 31 303 2:13:31 10:12/M
50 Jill Blust Webberville MI 32 309 2:13:44 10:13/M
51 Suzanne Olsen Riverview MI 34 314 2:13:56 10:13/M
52 Katherine Pham Washington DC 34 335 2:15:46 10:22/M
53 Ronit Stahl Ann Arbor MI 33 337 2:15:51 10:22/M
54 Danielle Guerin Northville MI 30 338 2:15:54 10:22/M
55 Stacy Fairchild Westland MI 32 341 2:16:13 10:24/M
56 Alicia Young Ira MI 34 349 2:17:06 10:28/M
57 Nicole Allard Flushing MI 34 357 2:17:56 10:32/M
58 Michele Bagrowski Wauseon OH 32 358 2:18:03 10:32/M
59 Olivia Zwetzig Essexville MI 33 370 2:19:03 10:37/M
60 Frieda Edoh-Bedi Canton MI 32 373 2:19:06 10:37/M
61 Faheemah Mustafaa Ann Arbor MI 30 379 2:19:33 10:39/M
62 Tara Mahoney Ypsilanti MI 32 386 2:20:18 10:43/M
63 Margaret Tingley Macomb MI 34 397 2:21:34 10:48/M
64 Liz Tracy Grand Rapids MI 33 405 2:22:42 10:54/M
65 Abigail Saak Royal Oak MI 30 414 2:23:44 10:58/M
66 Laura Hamden Milan MI 34 418 2:23:55 10:59/M
67 Kristi Rork Willis MI 33 424 2:25:09 11:05/M
68 Jr Stearns Berkley MI 30 428 2:25:34 11:07/M
69 Jessica Diver Royal Oak MI 30 429 2:25:35 11:07/M
70 Shannon Inman Westland MI 34 440 2:26:47 11:12/M
71 Shannon Cozadd Royal Oak MI 30 445 2:26:51 11:13/M
72 Jean Szura Shelby Township MI 32 448 2:26:58 11:13/M
73 Jenna Davis Lake Orion MI 32 461 2:28:10 11:19/M
74 Alyssa Dimitri Belleville MI 33 464 2:28:21 11:19/M
75 Jennifer Adams Toledo OH 33 470 2:28:40 11:21/M
76 Stacy Sloan Northville MI 33 490 2:31:57 11:36/M
77 Heidi Wasielewski Ann Arbor MI 31 498 2:32:56 11:40/M
78 Katie Lehnis Canton MI 34 504 2:33:16 11:42/M
79 Alisha Trent Novi MI 30 517 2:34:34 11:48/M
80 Emily Verbeke 32 525 2:36:10 11:55/M
81 Stephanie Terrazas Adrian MI 31 537 2:38:07 12:04/M
82 Katelyn Schaible Ann Arbor MI 32 549 2:40:57 12:17/M
83 Claudia Krueger Novi MI 30 551 2:41:12 12:18/M
84 Kila Hudson 34 554 2:41:55 12:22/M
85 Katherine Pareizs Clinton Township MI 31 566 2:46:06 12:41/M
86 Mindi Swallow Chesterfield MI 33 568 2:46:23 12:42/M
87 Erica Thomas Pontiac MI 34 577 2:48:32 12:52/M
88 Jennifer Yugo Rochester Hills MI 32 587 2:51:05 13:04/M
89 April Beaton Ferndale MI 31 596 2:53:00 13:12/M
90 Caroline Brohn-Dicks Ferndale MI 31 600 2:54:23 13:19/M
91 Jamie Longson Saint Clair Shores MI 34 605 2:55:36 13:24/M
92 Kelly Wood Rochester MI 30 610 2:56:57 13:30/M
93 Cindy Amey Flushing MI 34 621 2:58:37 13:38/M
94 Melissa Knitter Ann Arbor MI 33 628 3:01:21 13:51/M
95 Jessica Lacey Warren MI 30 632 3:06:25 14:14/M
96 Laura Galler Overland Park KS 34 635 3:08:14 14:22/M
97 Trenaye Neequaye Southfield MI 34 637 3:08:40 14:24/M
98 Marigrace Gaglio Chesterfield MI 32 655 3:17:35 15:05/M
99 Amanda Trott Sterling Heights MI 32 656 3:17:35 15:05/M
100 Meg Berger Huntington Woods MI 33 666 3:25:39 15:42/M
101 Jennifer Amorose Grand Rapids MI 33 676 3:32:09 16:12/M
102 Coti Brown Grand Blanc MI 34 677 3:32:10 16:12/M
103 Clarissa Vasser Detroit MI 31 688 3:48:36 17:27/M
104 Melissa Kowalewski Royal Oak MI 34 691 4:05:34 18:45/M

Female 35 to 39

Place Name City Age Overall Total Time Pace
1 Lori Byersdorfer Ann Arbor MI 38 12 1:36:59 7:24/M
2 Wendy Knape Tecumseh MI 39 15 1:40:52 7:42/M
3 Karen Smith Stow OH 36 16 1:41:00 7:43/M
4 Julie Nemens Sterling Heights MI 39 17 1:41:56 7:47/M
5 Angie Mitzel Ann Arbor MI 38 23 1:43:40 7:55/M
6 Jessica Shehab Northville MI 38 28 1:44:45 8:00/M
7 Heidi Duffy Holly MI 39 33 1:47:05 8:10/M
8 Reem Taha Dearborn MI 37 34 1:47:11 8:11/M
9 Kelley Kozloff Ann Arbor MI 36 36 1:47:22 8:12/M
10 Carmela Cusumano Ann Arbor MI 35 38 1:47:36 8:13/M
11 Mandy Mitroff Royal Oak MI 39 40 1:47:39 8:13/M
12 Shelly Bodner Canton MI 38 43 1:48:33 8:17/M
13 Emilia Miller West Bloomfield MI 38 49 1:49:16 8:20/M
14 Valerie O'Brien Howell MI 38 56 1:51:03 8:29/M
15 Amy Watson Sterling Heights MI 38 62 1:51:47 8:32/M
16 Rita Messing Harbor Beach MI 36 64 1:51:59 8:33/M
17 Jenn Fox Sylvan Lake MI 36 65 1:52:00 8:33/M
18 Susan Greiner Harrison Twp MI 36 70 1:52:21 8:35/M
19 Katie Quinn St. Clair Shores MI 36 77 1:54:16 8:43/M
20 Monica McLeod Ypsilanti MI 36 78 1:54:32 8:45/M
21 Kimi Hojo Battle Creek MI 36 79 1:54:50 8:46/M
22 Erin Ross Novi MI 38 85 1:55:16 8:48/M
23 Becky Weeks Ypsilanti MI 37 96 1:55:42 8:50/M
24 Diana Thiem Oberursel 37 97 1:55:48 8:50/M
25 Miranda Cyr-St Louis Essex ON 36 107 1:56:47 8:55/M
26 Lara Kapalla Bloomfield Hills MI 37 110 1:57:16 8:57/M
27 Linda Park Mount Clemens MI 38 118 1:58:04 9:01/M
28 Melinda Soegiharto Windsor ON 37 124 1:58:27 9:03/M
29 Ornella Vacca Novi MI 35 135 1:59:03 9:05/M
30 Jennifer McQuade Hartland MI 38 136 1:59:12 9:06/M
31 Dana Degrazia South Lyon MI 36 137 1:59:29 9:07/M
32 Sheri Hickok Commerce Township MI 35 139 1:59:36 9:08/M
33 Stefanie Simmons Ann Arbor MI 36 149 2:00:57 9:14/M
34 Krista Seiter Holly MI 37 152 2:01:10 9:15/M
35 Kara Zimmer Cedar Spings MI 35 155 2:01:17 9:15/M
36 Jessica Vigenski Canton MI 36 157 2:01:25 9:16/M
37 Erika Myers Canton MI 37 160 2:01:33 9:17/M
38 Rachel Sloan Canton MI 35 163 2:01:42 9:17/M
39 Melissa Jenness Grosse Pointe Park MI 39 168 2:02:10 9:20/M
40 Michelle Millman West Bloomfield MI 36 169 2:02:12 9:20/M
41 Tendai Thomas Farmington Hills MI 39 171 2:02:29 9:21/M
42 Kelly Suess Farmington Hills MI 36 174 2:03:12 9:24/M
43 Jill Obelink Novi MI 38 184 2:03:58 9:28/M
44 Beth Fortino Northville MI 37 193 2:04:33 9:30/M
45 Danielle White New Baltimore MI 38 204 2:05:47 9:36/M
46 Andrea Miller Canton MI 35 205 2:05:56 9:37/M
47 Marcia Beyer Canton MI 38 208 2:06:01 9:37/M
48 Kristin Byrne Shelby Township MI 38 210 2:06:15 9:38/M
49 Rosemary Perez Ann Arbor MI 36 221 2:06:52 9:41/M
50 Kelly Nyquist Northville MI 37 227 2:07:22 9:43/M
51 Victoria Christiansen Clinton Twp MI 35 228 2:07:38 9:45/M
52 Melissa Struk Chelsea MI 37 234 2:07:57 9:46/M
53 Lily Wu Canton MI 35 243 2:08:47 9:50/M
54 Cynthia Harden Algonac MI 36 245 2:08:51 9:50/M
55 Amy Lawson Ann Arbor MI 39 249 2:09:13 9:52/M
56 Karen Knott Royal Oak MI 39 252 2:09:23 9:53/M
57 Abbie Stark Southfield MI 35 253 2:09:31 9:53/M
58 Krista Bennink Clarkston MI 37 264 2:10:20 9:57/M
59 Cathleen Curley Ann Arbor MI 39 272 2:10:48 9:59/M
60 Tamara Fobare Royal Oak MI 39 277 2:11:10 10:01/M
61 Jessica Wendt Brighton MI 36 281 2:11:36 10:03/M
62 Adrienne Silvestri Brighton MI 39 282 2:11:37 10:03/M
63 Tara Truax Ypsilanti MI 36 284 2:12:07 10:05/M
64 Lauren Smith Birmingham MI 35 292 2:12:32 10:07/M
65 Kim Robinson Royal Oak MI 35 294 2:12:32 10:07/M
66 Da'Neese Wells Holt MI 38 295 2:12:34 10:07/M
67 Melissa Shufeldt Dearborn MI 38 317 2:14:05 10:14/M
68 Wendy Altesleben Royal Oak MI 37 318 2:14:06 10:14/M
69 Jennifer Eller Oscoda MI 37 322 2:14:24 10:16/M
70 Shelley Frost Grosse Pointe Park MI 36 328 2:15:19 10:20/M
71 Lisa Holtz Clinton Township MI 36 330 2:15:29 10:21/M
72 Lena Duffy Grosse Pointe Park MI 38 332 2:15:33 10:21/M
73 Jean Herron Novi MI 36 339 2:16:06 10:23/M
74 Julie Pichler Northville MI 38 340 2:16:12 10:24/M
75 Melissa Becker Southgate MI 35 343 2:16:32 10:25/M
76 Amy Sargent Novi MI 38 346 2:16:54 10:27/M
77 Leigh Ann Jewell Lachine MI 39 360 2:18:11 10:33/M
78 Clisty Kinlin Brighton MI 39 364 2:18:26 10:34/M
79 Jennifer Schauss Essexville MI 39 371 2:19:03 10:37/M
80 Susanna King Madison Heights MI 35 383 2:20:07 10:42/M
81 Rebecca Slivensky Chesterfield MI 36 385 2:20:17 10:43/M
82 Kimberly Paulson Shelby Township MI 39 392 2:21:02 10:46/M
83 Kimberly Lee Livonia MI 36 398 2:21:37 10:49/M
84 Angela Gabridge Grosse Pointe Woods MI 35 402 2:22:02 10:51/M
85 Abigail Stybel West Bloomfield MI 39 419 2:24:00 11:00/M
86 Tamera Fenske St Clair Shores MI 35 420 2:24:26 11:02/M
87 Barb Byrum Onondaga MI 35 421 2:24:35 11:02/M
88 Mara Greatorex Dexter MI 38 431 2:25:44 11:07/M
89 Erin Ferris Madison Heights MI 35 432 2:26:01 11:09/M
90 Jen Quaderer Livonia MI 38 434 2:26:17 11:10/M
91 Heather Powell Warren MI 35 436 2:26:35 11:11/M
92 Angela Patterson Bloomfield Township MI 36 438 2:26:36 11:11/M
93 Gayle Krueger St. Clair Shores MI 37 439 2:26:42 11:12/M
94 Jaime Craig Allen Park MI 36 443 2:26:48 11:12/M
95 Nicole Trubey Clinton Township MI 38 446 2:26:51 11:13/M
96 Julie Bogas Berkley MI 36 449 2:26:59 11:13/M
97 Elisabeth Jilek-Pace Ann Arbor MI 35 454 2:27:15 11:14/M
98 Patricia Wells Detroit MI 36 456 2:27:20 11:15/M
99 Lynette Sapienza Apex NC 39 462 2:28:16 11:19/M
100 Josie Boucher Kalamazoo MI 38 463 2:28:16 11:19/M
101 Tanoya Harris Detroit MI 37 483 2:30:39 11:30/M
102 Aliya Armstrong Caledonia MI 37 485 2:31:09 11:32/M
103 Amber Logan Canton MI 39 503 2:33:16 11:42/M
104 Olivia Whipple Phoenix AZ 35 507 2:33:42 11:44/M
105 Erica Van Berkum Detroit MI 36 508 2:33:43 11:44/M
106 Leanna Nickel Royal Oak MI 38 514 2:34:29 11:48/M
107 Abigail Prout Auburn Hills MI 38 521 2:35:05 11:50/M
108 Jamie Lauinger Goodrich MI 35 536 2:38:01 12:04/M
109 Amy Dekorse New Haven MI 38 538 2:38:12 12:05/M
110 Erin Snyder Ypsilanti MI 37 542 2:39:41 12:11/M
111 Deanna Bucher Ferndale MI 38 559 2:42:15 12:23/M
112 Tamara Garnett Canton MI 38 565 2:44:59 12:36/M
113 Sandy Kenney Lasalle ON 38 576 2:48:32 12:52/M
114 Nicolette Fazio Grand Blanc MI 39 580 2:49:34 12:57/M
115 Catherine Youmans Flushing MI 37 584 2:50:15 13:00/M
116 Janie Kelp Brownstown MI 36 594 2:52:31 13:10/M
117 Katina Minor Tecumseh MI 35 603 2:55:03 13:22/M
118 Zita Wise Chesterfield MI 39 607 2:55:44 13:25/M
119 Kerlyne Alexis Detroit MI 38 612 2:57:17 13:32/M
120 Devora Lattimore Fenton MI 37 613 2:57:35 13:33/M
121 Angela Tyler Flint MI 39 615 2:57:36 13:33/M
122 Hannann Alsahloni 37 617 2:57:44 13:34/M
123 Donna MacDougall Windsor ON 35 619 2:58:14 13:36/M
124 Carrie Jones East Lansing MI 37 636 3:08:38 14:24/M
125 Jessica Chamberlin Madison Heights MI 35 640 3:10:40 14:33/M
126 Anna Roush Ann Arbor MI 39 644 3:11:39 14:38/M
127 Chelise Sylva Lake Orion MI 38 647 3:12:38 14:42/M
128 Melanie Wood Spotsylvania VA 39 659 3:19:14 15:13/M
129 Michelle McAllister Ypsilanti MI 39 664 3:21:28 15:23/M
130 Mindy Bryde Pinckney MI 38 669 3:28:37 15:55/M
131 Fay Poissant Ypsilanti MI 37 670 3:29:19 15:59/M
132 Mandie Koppinger Chesterfield MI 37 673 3:31:11 16:07/M
133 Jennifer Wrobel Garden City MI 35 690 3:55:23 17:58/M

Female 40 to 44

Place Name City Age Overall Total Time Pace
1 Juliette McNiven-Perry Berkley MI 40 6 1:34:08 7:11/M
2 Janet Harden Lake Orion MI 41 11 1:36:28 7:22/M
3 Julie Demay South Lyon MI 40 26 1:44:32 7:59/M
4 Martha Walsh Ann Arbor MI 41 45 1:48:48 8:18/M
5 Monika Earles Hartville OH 40 53 1:50:46 8:27/M
6 Meoshia Smith-Bogins Redford MI 43 86 1:55:18 8:48/M
7 Leslie Bodnar San Clemente CA 42 93 1:55:35 8:49/M
8 Jamie Shaskos Clarkston MI 40 94 1:55:37 8:50/M
9 Lana Desmond South Lyon MI 40 101 1:55:59 8:51/M
10 Leigh Ball Wixom MI 43 104 1:56:28 8:53/M
11 Rebecca Lesage Windsor ON 40 113 1:57:25 8:58/M
12 Lori Collins Ypsilanti MI 40 123 1:58:23 9:02/M
13 Holly West Columbiaville MI 44 156 2:01:25 9:16/M
14 Tammy Wiggins Columbiaville MI 40 172 2:02:53 9:23/M
15 Lori Kalmeta Grosse Pointe Farms MI 43 180 2:03:36 9:26/M
16 Elena Coppola Dewitt MI 41 185 2:03:58 9:28/M
17 Keri Lusk Belle River ON 42 186 2:04:03 9:28/M
18 Patty Karbowski New York NY 41 194 2:04:34 9:31/M
19 Julie Ignagni Dearborn MI 41 195 2:04:34 9:31/M
20 Arkeisha Walker 44 196 2:04:37 9:31/M
21 Mary Vollendorf Anchorage AK 44 199 2:04:44 9:31/M
22 Janel Cicalo Clinton Twp MI 44 201 2:04:53 9:32/M
23 Nicole Wozniak Grosse Ile MI 41 219 2:06:46 9:41/M
24 Ann Clark Holland MI 42 222 2:06:52 9:41/M
25 Darlene Wasilewski Macomb MI 42 242 2:08:44 9:50/M
26 Joan Keckler Maumee OH 44 246 2:09:03 9:51/M
27 Karen Thomas Columbus OH 40 247 2:09:04 9:51/M
28 Genie Moyer Farmington Hills MI 40 248 2:09:11 9:52/M
29 Laurie Hoffman Lake Orion MI 40 251 2:09:22 9:53/M
30 Darlene Fancher Lansing MI 40 260 2:10:15 9:57/M
31 Shawn Hill Farmington Hills MI 41 269 2:10:29 9:58/M
32 Jennifer Watson Grand Blanc MI 42 274 2:10:53 9:59/M
33 Dina Payne Adrian MI 43 289 2:12:20 10:06/M
34 Kellie Labarr Ypsilanti MI 40 298 2:12:35 10:07/M
35 Michelle Swain Toledo OH 44 304 2:13:34 10:12/M
36 Heidi Bliss Orion MI 42 305 2:13:36 10:12/M
37 Deanna Dudley Alameda CA 42 312 2:13:48 10:13/M
38 Heather Craig Warren MI 40 315 2:13:56 10:13/M
39 Kris Welko Wixom MI 42 316 2:13:58 10:14/M
40 Maria Suchyta Belleville MI 43 319 2:14:18 10:15/M
41 Akane Hodge Canton MI 41 324 2:14:33 10:16/M
42 Anne Wightman 40 326 2:15:16 10:20/M
43 Beth Betten Haslett MI 41 333 2:15:44 10:22/M
44 Letty Azar Harrison Township MI 40 342 2:16:22 10:25/M
45 Amanda Ellis Novi MI 40 344 2:16:36 10:26/M
46 Sharmene Syversen Brighton MI 43 351 2:17:22 10:29/M
47 Tina Ruff Fenton MI 41 352 2:17:34 10:30/M
48 Crystal Scott Detroit MI 44 354 2:17:42 10:31/M
49 Jennifer Paris Chesterfield MI 42 355 2:17:50 10:31/M
50 Jennifer Wisniewski Berkley MI 42 368 2:19:02 10:37/M
51 Dawn Delorenzo Livonia MI 42 380 2:19:39 10:40/M
52 Pilar Hernandez Southgate MI 40 381 2:19:49 10:40/M
53 Amy Hermon Grosse Pointe MI 43 382 2:20:00 10:41/M
54 Mona Shand Brighton MI 40 388 2:20:21 10:43/M
55 Hope Cullen Byron Center MI 41 395 2:21:31 10:48/M
56 Michelle Ramsay Essex ON 43 407 2:22:50 10:54/M
57 Jeanette Summerfield Shelby Township MI 41 409 2:22:56 10:55/M
58 Tracy Warrick Macomb MI 43 422 2:24:43 11:03/M
59 Erica Schwartz Greenwood Village CO 40 423 2:24:52 11:04/M
60 Amy Fetzer-Wollett Hudson MI 44 433 2:26:12 11:10/M
61 Lori Lawyer Whitmore Lake MI 44 441 2:26:48 11:12/M
62 Shelly Spiegelberg Whitmore Lake MI 42 442 2:26:48 11:12/M
63 Karen Relph Sterling Heights MI 43 444 2:26:49 11:12/M
64 Tracey Pillon-Abbs Essex ON 44 447 2:26:54 11:13/M
65 Kimberly Hasapes Toledo OH 44 450 2:27:00 11:13/M
66 Stephanei Scott Santa Monica CA 43 457 2:27:21 11:15/M
67 Hilda Cates Santa Cruz CA 41 468 2:28:28 11:20/M
68 Ann-Marie Smihal Grosse Pointe MI 44 469 2:28:35 11:21/M
69 Mollie Kesselring Romeo MI 41 473 2:29:11 11:23/M
70 Mary Borysiewski Lincoln Park MI 42 474 2:29:24 11:24/M
71 Heidi Olmsted Grand Blanc MI 40 480 2:30:22 11:29/M
72 Jennifer Schwartz Saline MI 40 486 2:31:13 11:33/M
73 Melissa Jackson Madison Heights MI 42 494 2:32:14 11:37/M
74 Stacey Hall Webberville MI 40 495 2:32:17 11:37/M
75 Cristina Whitmore Toledo OH 43 502 2:33:15 11:42/M
76 Lilibeth Leonardo Canton MI 42 510 2:34:03 11:46/M
77 Karie Barczak Redford MI 41 515 2:34:30 11:48/M
78 Tamara Christiansen Ann Arbor MI 43 518 2:34:46 11:49/M
79 Julie Hodder Dexter MI 40 526 2:36:35 11:57/M
80 Tracy Mitchell Lake Orion MI 43 527 2:36:42 11:58/M
81 Salisa Wren Ypsilanti MI 41 528 2:36:43 11:58/M
82 Cindy Wagner Clarkston MI 42 531 2:37:38 12:02/M
83 Jodie McHugh Shelby Twp MI 42 533 2:37:47 12:03/M
84 Tabitha Barnowsky Ypsilanti MI 42 535 2:38:01 12:04/M
85 Michelle Spears West Bloomfield MI 44 539 2:39:13 12:09/M
86 Christina Varady Southgate MI 42 540 2:39:27 12:10/M
87 Brenda Rupp Westland MI 43 550 2:41:11 12:18/M
88 Francine Sumner Howell MI 43 557 2:42:03 12:22/M
89 Sabrina Smith-Campbell Bloomfield Hills MI 43 558 2:42:03 12:22/M
90 Phebe Lam Windsor ON 40 562 2:43:31 12:29/M
91 Sherry Lee Shelby Twp MI 41 564 2:43:53 12:31/M
92 Trish Cowper Essex ON 40 570 2:47:43 12:48/M
93 Angela Lugo-Thomas Highland Park MI 41 572 2:48:13 12:50/M
94 Patricia Williams Willis MI 40 579 2:49:19 12:55/M
95 Charissa Keller Dexter MI 40 588 2:51:06 13:04/M
96 April Maunu Brighton MI 40 592 2:51:38 13:06/M
97 Margaret Goudreau Southgate MI 40 599 2:54:06 13:17/M
98 Anna Shih Royal Oak MI 43 620 2:58:24 13:37/M
99 Ali Alhimiri 42 623 2:58:50 13:39/M
100 Holli Neeb Milan MI 40 629 3:03:25 14:00/M
101 Deanna Quinn New Baltimore MI 40 631 3:06:02 14:12/M
102 Christie Nickson Commerce Township MI 43 638 3:10:16 14:31/M
103 Adrianne Croket Canton MI 42 639 3:10:18 14:32/M
104 Diane Swander Cleveland Heights OH 44 642 3:11:02 14:35/M
105 Latesha Stewart Detroit MI 42 643 3:11:20 14:36/M
106 Christina Marsee Macomb MI 44 648 3:12:44 14:43/M
107 Suzanne Archambault Berkley MI 42 649 3:12:47 14:43/M
108 Michele Babbish Warren MI 41 653 3:15:44 14:56/M
109 Gretchen Timosan Arlington Heights IL 40 658 3:18:56 15:11/M
110 Cindy Weaver Livonia MI 42 674 3:31:29 16:09/M
111 Rebecca Schroeder Madison Heights MI 44 678 3:32:43 16:14/M
112 Melanie Kleier Loveland OH 44 680 3:33:23 16:17/M
113 Theresa McDonald Dearborn MI 44 687 3:48:35 17:27/M
114 Kelli Herbert Waterford MI 40 692 4:14:04 19:24/M

Female 45 to 49

Place Name City Age Overall Total Time Pace
1 Erin Kelly Royal Oak MI 47 19 1:42:18 7:49/M
2 Lea Brothers Monroe MI 45 32 1:46:26 8:07/M
3 Monica Reynolds Canton MI 47 41 1:47:52 8:14/M
4 Katharine Johnson Chicago IL 45 44 1:48:41 8:18/M
5 Susan Larue Novi MI 49 50 1:49:50 8:23/M
6 Christine Smith Canton MI 46 54 1:50:58 8:28/M
7 Kathleen Erz St Clair Shores MI 48 55 1:51:03 8:29/M
8 Shelly Demoss South Lyon MI 48 67 1:52:04 8:33/M
9 Lisa Langenburg Grosse Pointe MI 46 71 1:52:34 8:36/M
10 Kelly Head Ann Arbor MI 45 72 1:52:45 8:36/M
11 Marie Laich Lake Orion MI 45 90 1:55:32 8:49/M
12 Jen Coombs Lincoln Park MI 49 92 1:55:34 8:49/M
13 Jean Parker Oakland MI 49 98 1:55:49 8:50/M
14 Dawn Chartier Ferndale MI 46 114 1:57:26 8:58/M
15 Rita Telegadas Grosse Pointe Woods MI 47 115 1:57:30 8:58/M
16 Julie Laforge Utica MI 49 119 1:58:18 9:02/M
17 Kamini Muzumdar Houston TX 47 138 1:59:33 9:08/M
18 Betsy Cavanaugh Ann Arbor MI 46 140 1:59:47 9:09/M
19 Ilisa Bernstein North Bethesda MA 49 150 2:01:07 9:15/M
20 Deborah Evans South Lyon MI 49 154 2:01:13 9:15/M
21 Luma Dara Dearborn MI 46 164 2:01:46 9:18/M
22 Sandra Ross Howell MI 45 167 2:02:09 9:19/M
23 Jillian Peck Highland MI 49 170 2:02:16 9:20/M
24 Pauline Jesue Allen Park MI 49 177 2:03:24 9:25/M
25 Lillian Debacker Ann Arbor MI 45 178 2:03:28 9:25/M
26 Ana Hotaling Chelsea MI 47 188 2:04:17 9:29/M
27 Karol Ostrowski Northville MI 47 191 2:04:32 9:30/M
28 Jennifer Burdgick Highland MI 47 200 2:04:50 9:32/M
29 Kristi Gilbert Ann Arbor MI 45 223 2:06:56 9:41/M
30 Christy Perros Ann Arbor MI 45 238 2:08:20 9:48/M
31 Reva Smith Detroit MI 46 250 2:09:20 9:52/M
32 Beth Dumas Franklin MI 49 255 2:09:40 9:54/M
33 Susan Schnitzel South Lyon MI 48 262 2:10:18 9:57/M
34 Laura Caprara Grand Rapids MI 45 276 2:11:03 10:00/M
35 Diana Galejs Brigthon MI 48 288 2:12:18 10:06/M
36 Ann Whitmer Mason MI 48 300 2:13:02 10:09/M
37 Alise Grant Allen Park MI 48 306 2:13:37 10:12/M
38 Colleen Weber Novi MI 46 307 2:13:43 10:12/M
39 Jane Gartee Toledo OH 49 313 2:13:55 10:13/M
40 Tia Pettygrue Lutz FL 45 321 2:14:24 10:16/M
41 Patricia Piccinin Tecumseh ON 49 329 2:15:27 10:20/M
42 Cheryl Singer-Reaume Belle River ON 45 336 2:15:50 10:22/M
43 Shawn Burton Belleville MI 49 347 2:16:54 10:27/M
44 Nancy Cutler West Bloomfield MI 49 348 2:16:55 10:27/M
45 Michelle Tindall Troy MI 45 361 2:18:16 10:33/M
46 Ann Meagher Bay City MI 48 369 2:19:03 10:37/M
47 Diane Konwinski Pinconning MI 48 372 2:19:03 10:37/M
48 Nancy Damm Ann Arbor MI 46 376 2:19:26 10:39/M
49 Olivia Quinal Warren MI 48 378 2:19:32 10:39/M
50 Judy Jones Corunna ON 49 390 2:20:47 10:45/M
51 Sheri Ward Clinton Township MI 48 399 2:21:41 10:49/M
52 Marianne O'Brien-bullock Milford MI 49 400 2:22:00 10:50/M
53 Ernestine Berry Clinton Twp MI 45 412 2:23:13 10:56/M
54 Dawn Walton Bloomfield Hills MI 45 415 2:23:51 10:59/M
55 Kelly Bosworth Overland Park KS 47 425 2:25:14 11:05/M
56 Karen Slayton Livonia MI 46 451 2:27:07 11:14/M
57 Lori Brauer Livonia MI 49 452 2:27:08 11:14/M
58 Sheila Dow Livonia MI 47 453 2:27:09 11:14/M
59 Jan Martin Camden OH 49 459 2:27:32 11:16/M
60 Angelika McCann Livonia MI 45 471 2:29:06 11:23/M
61 Karen Milatz West Bloomfield MI 45 479 2:30:11 11:28/M
62 Kate Rodriguez Fort Worth TX 45 487 2:31:39 11:35/M
63 Gloria Randall Burton MI 49 491 2:31:58 11:36/M
64 Laura Giles Ypsilanti MI 49 500 2:32:57 11:41/M
65 Lee Ann Seymour Grosse Pointe Woods MI 47 513 2:34:23 11:47/M
66 Sarah Helland Ann Arbor MI 45 519 2:34:50 11:49/M
67 Marcia Polselli Bloomfield Hills MI 48 524 2:35:56 11:54/M
68 Kara Cyr Lake Orion MI 46 529 2:37:06 12:00/M
69 Chris Lawrence Ann Arbor MI 46 541 2:39:41 12:11/M
70 Laura Wagner Dearborn MI 49 543 2:39:51 12:12/M
71 Catherine Bansek Rochester MI 45 544 2:40:08 12:13/M
72 Vicki Demaagd Woodland MI 45 545 2:40:09 12:14/M
73 Mary Diskin Dexter MI 48 546 2:40:09 12:14/M
74 Paula Bejin Grosse Pointe Woods MI 45 547 2:40:21 12:14/M
75 Karen Gubachy Livonia MI 49 552 2:41:31 12:20/M
76 Anne Hage Livonia MI 49 553 2:41:31 12:20/M
77 Gina Stanford Canton MI 46 561 2:43:26 12:29/M
78 Lisa Eugeni Windsor ON 45 563 2:43:32 12:29/M
79 Kristine Padalino Macomb MI 47 567 2:46:20 12:42/M
80 Rene Nelson Macomb MI 47 569 2:47:40 12:48/M
81 Catherine Ludwig Shelby Township MI 46 574 2:48:22 12:51/M
82 Patricia White Washington DC 45 575 2:48:31 12:52/M
83 Ro Coppola Grosse Pointe Park MI 45 578 2:48:53 12:54/M
84 Mary Hewitt Flint MI 45 606 2:55:41 13:25/M
85 Patricia Krotche Macomb MI 47 611 2:57:05 13:31/M
86 Wendy Cooper Ann Arbor MI 45 634 3:07:51 14:20/M
87 Prentiss Hamden Adrian MI 45 645 3:11:44 14:38/M
88 Andrea Younkins Marine City MI 49 663 3:21:20 15:22/M
89 Kelly Grumelot Lansing MI 49 672 3:30:21 16:03/M

Female 50 to 54

Place Name City Age Overall Total Time Pace
1 Jin Zhu Northville MI 50 24 1:44:15 7:57/M
2 Krys Brish Milford MI 50 25 1:44:32 7:59/M
3 Michelle Fields South Lyon MI 54 27 1:44:42 8:00/M
4 Carla Palffy Grosse Pointe Park MI 51 46 1:48:51 8:19/M
5 Kathleen O'Shea Rochester Hills MI 51 52 1:50:28 8:26/M
6 Celeste Flick Grosse Pointe Farms MI 50 61 1:51:46 8:32/M
7 Suzanne White Farmington MI 51 66 1:52:01 8:33/M
8 Debbie Rochester Warren MI 50 80 1:54:53 8:46/M
9 Coreen Paul Sacramento CA 51 122 1:58:21 9:02/M
10 Beth Kangas Grand Rapids MI 50 126 1:58:39 9:03/M
11 Ann Mobbs Howell MI 50 128 1:58:44 9:04/M
12 Wendy Bair Howell MI 51 130 1:58:51 9:04/M
13 Shelley Irwin Grand Rapids MI 52 146 2:00:37 9:12/M
14 Julie Patterson Indianapolis IN 53 187 2:04:07 9:28/M
15 Jennifer Sullivan Monroe CA 53 207 2:05:58 9:37/M
16 Anne Maier Ann Arbor MI 54 209 2:06:10 9:38/M
17 Michele Buscaino Birmingham MI 54 212 2:06:21 9:39/M
18 Dianne Seymour Linden MI 50 226 2:07:17 9:43/M
19 Karen Butler Commerce Township MI 52 232 2:07:47 9:45/M
20 Shelley Anzalone Saline MI 50 268 2:10:27 9:57/M
21 Aileen Flanagan Parsippany NJ 51 279 2:11:33 10:03/M
22 Cindy Butler Dexter MI 53 311 2:13:46 10:13/M
23 Jean Knaak St. Joseph MI 52 345 2:16:38 10:26/M
24 Cheryl Strange-Laetsch Grass Lake MI 54 353 2:17:36 10:30/M
25 Pamela Hume Zeeland MI 54 356 2:17:52 10:31/M
26 Diane Ibrahim Lincoln NE 53 375 2:19:22 10:38/M
27 Lorray Brown Ypsilanti MI 53 384 2:20:17 10:43/M
28 Irene Kiefer Berkley MI 51 389 2:20:45 10:45/M
29 Yvette Mitchell Ann Arbor MI 52 391 2:20:54 10:45/M
30 Shannon Coombs Saint Johns MI 52 406 2:22:43 10:54/M
31 Karol Otteman Franklin MI 52 416 2:23:52 10:59/M
32 Anita Kenner Rochester MI 50 460 2:27:49 11:17/M
33 Dawn Soave Livonia MI 51 475 2:29:50 11:26/M
34 Marlis Martin Oak Park MI 50 497 2:32:51 11:40/M
35 Muriel Burrell Westland MI 50 499 2:32:56 11:40/M
36 Beth Johns Haslett MI 52 506 2:33:37 11:44/M
37 Sue Barnes Rochester Hills MI 53 532 2:37:39 12:02/M
38 Jeanne Stuart Grosse Pointe MI 53 560 2:42:32 12:24/M
39 Bonnie Barden Shelby Township MI 50 573 2:48:19 12:51/M
40 Katrina Moore Southfield MI 50 597 2:53:08 13:13/M
41 Kim Mau Roseville MI 50 602 2:55:03 13:22/M
42 Kelly Ross Belleville MI 50 626 3:00:09 13:45/M
43 Angie Witting Eastpointe MI 54 650 3:12:47 14:43/M
44 Terrie Hall Britton MI 54 651 3:12:50 14:43/M
45 Tina Waldecker Clawson MI 51 660 3:20:11 15:17/M
46 Annette Weeks Freeport MI 52 671 3:30:20 16:03/M
47 Bethann Perkins Grand Ledge MI 54 682 3:34:56 16:24/M

Female 55 to 59

Place Name City Age Overall Total Time Pace
1 Maggie Hibler Marvin NC 57 42 1:48:09 8:15/M
2 Kathleen Clark Fraser MI 56 48 1:49:10 8:20/M
3 Marie Rivard Fraser MI 57 84 1:55:16 8:48/M
4 Joanne Baitup Valparaiso IN 56 179 2:03:30 9:26/M
5 Marybeth Murz Rochester Hills MI 57 189 2:04:25 9:30/M
6 Elizabeth Stewart Mason MI 59 296 2:12:34 10:07/M
7 Marie Muehlenbein Northville MI 55 404 2:22:39 10:53/M
8 Laura Droze Northville MI 57 481 2:30:25 11:29/M
9 Cathy Hessell Canton MI 57 484 2:30:57 11:31/M
10 Denise Tatman Westland MI 59 501 2:33:12 11:42/M
11 Marilyn Winningham Clinton Township MI 56 520 2:35:02 11:50/M
12 Lorraine Grix Redford MI 56 583 2:49:48 12:58/M
13 Judy Kilpatrick Grosse Ile MI 57 590 2:51:21 13:05/M
14 Geri Bresnihan Farmington Hills MI 55 608 2:56:08 13:27/M
15 Nora Gessert Detroit MI 56 618 2:58:10 13:36/M
16 Pamela McClean Lansing MI 55 625 2:59:09 13:41/M
17 Rose Kreger Mussey MI 59 652 3:15:05 14:54/M
18 Connie McKay St Clair Shores MI 59 662 3:21:19 15:22/M

Female 60 to 64

Place Name City Age Overall Total Time Pace
1 Donna Olson Southgate MI 63 18 1:41:58 7:47/M
2 Ann Schmidt Grosse Pointe MI 60 95 1:55:39 8:50/M
3 Jennifer Emch Orrville OH 64 161 2:01:33 9:17/M
4 Jackie Olsen Riverview MI 60 197 2:04:41 9:31/M
5 Nancy Solway Bloomfield Hills MI 61 225 2:07:05 9:42/M
6 Gayle Grant Sanford MI 63 302 2:13:30 10:11/M
7 Elbertstine Sanders Detroit MI 63 323 2:14:31 10:16/M
8 Nancy Mason Saline MI 60 403 2:22:05 10:51/M
9 Heather Obert Toledo OH 61 493 2:32:09 11:37/M
10 Kathleen Giannosa Ann Arbor MI 64 523 2:35:45 11:53/M
11 Melissa Lax Bloomfield Hills MI 63 582 2:49:43 12:57/M
12 Sandra Parent Allen Park MI 60 593 2:52:29 13:10/M
13 Andrea Parks Ann Arbor MI 63 609 2:56:15 13:27/M
14 Sandra Larson Northville MI 61 614 2:57:35 13:33/M
15 Barbara Foley Howell MI 63 622 2:58:38 13:38/M
16 Deborah Schaller Trenton MI 63 630 3:04:13 14:04/M
17 Anita Villanueva Lake Odessa MI 60 683 3:41:30 16:55/M
18 Cynthia Erickson Lansing MI 60 684 3:41:32 16:55/M

Female 65 to 69

Place Name City Age Overall Total Time Pace
1 Mary Campbell Ann Arbor MI 68 275 2:10:55 10:00/M
2 Renee Vettorello Saline MI 67 426 2:25:14 11:05/M
3 Linda McLalin Washington Township MI 65 585 2:50:40 13:02/M
4 Eileen Kelley Royal Oak MI 65 641 3:10:40 14:33/M
5 Pamela Willer Sterling Heights MI 65 661 3:21:18 15:22/M
6 Gloria Polk Detroit MI 69 686 3:47:42 17:23/M

Female 70 to 74

Place Name City Age Overall Total Time Pace
1 L Maxine Jones Waterford MI 70 685 3:42:00 16:57/M

Male 0-99

Place Name City Age Overall Total Time Pace
1 Ken Compton Livonia MI 38 8 1:35:35 7:18/M
2 Scott Beach Farmington MI 42 103 1:56:17 8:53/M
3 Craig Christ Enid OK 32 109 1:57:15 8:57/M
4 Dan Leblanc Grosse Pointe Woods MI 44 176 2:03:22 9:25/M
5 Kelly Weaver 33 675 3:31:30 16:09/M
6 Caleb Mitchell Madison Heights MI 38 679 3:32:45 16:14/M




Detroit Womens Half Marathon and 5K 5K
Age Group Results
September 22, 2013
Results Provided by Race Timing Services

Female Open Winners

Place Name City Age Overall Total Time Pace
1 Polly Bennett New Baltimore MI 50 1 22:48 7:21/M
2 Amy Anikewich Fraser MI 36 2 22:57 7:24/M
3 Debbie Klemptner Saline MI 42 3 23:02 7:26/M

Female Masters Winners

Place Name City Age Overall Total Time Pace
1 Tera Furst-Fox Ypsilanti MI 40 12 25:18 8:10/M

Female Grand Masters Winners

Place Name City Age Overall Total Time Pace
1 Laetitia Ezell Detroit MI 54 43 27:50 8:59/M

No Age Given/Missing Info

Place Name City Age Overall Total Time Pace
1 Leigha Walker Clarkston MI 0 143 31:40 10:13/M

Female 13 & Under

Place Name City Age Overall Total Time Pace
1 Madison Castle Sterling Heights MI 13 74 29:07 9:24/M
2 Paige Prizlow Rochester Hills MI 13 81 29:18 9:27/M
3 Lisa Hoy Farmington Hills MI 9 133 31:04 10:01/M
4 Sadie Peddycord Chesterfield MI 8 292 40:01 12:55/M
5 Sylvia Eakett Saline MI 11 405 46:57 15:09/M
6 Madelyn Turner Ann Arbor MI 10 407 47:00 15:10/M
7 Rachel Fresard Grosse Pointe Woods MI 13 460 51:19 16:33/M
8 Isabella Riegel-Green Royal Oak MI 12 573 1:03:46 20:34/M

Female 14 to 19

Place Name City Age Overall Total Time Pace
1 Maria Trotta Troy MI 16 165 32:48 10:35/M
2 Aubrey Soave Novi MI 18 171 33:10 10:42/M
3 Jonnie Vasquez Allen Park MI 14 235 37:16 12:01/M
4 Nicolette Soave Novi MI 16 247 38:01 12:16/M
5 Alexis Soave Livonia MI 19 251 38:05 12:17/M
6 Alicia Loving Livonia MI 14 265 38:31 12:25/M
7 Shayna Thompson Warren MI 17 406 46:59 15:09/M
8 Cynthia Garcia 19 418 47:22 15:17/M
9 Marielle Driskell 19 542 57:16 18:28/M
10 Morgan Jewell Lachine MI 15 574 1:04:03 20:40/M
11 Marleigh Jewell Lachine MI 16 575 1:04:05 20:40/M
12 India Dinges Grosse Pointe Park MI 14 581 1:06:55 21:35/M
13 Taylor Stachurski Madison Heights MI 15 583 1:07:04 21:38/M
14 Robyn Bernstein North Bethesda MD 19 596 3:39:06 70:41/M

Female 20 to 24

Place Name City Age Overall Total Time Pace
1 Courtney Beidler Ann Arbor MI 21 7 24:49 8:00/M
2 Christina Schucker Grosse Pointe Shores MI 24 25 26:59 8:42/M
3 Leigh Ann Ulrey Detroit MI 24 29 27:11 8:46/M
4 Jessica Miles Ypsilanti MI 24 42 27:50 8:59/M
5 Lauren Hamel Bay City MI 21 50 28:04 9:03/M
6 Meagan Kanny Dexter MI 24 52 28:08 9:05/M
7 Erica Kanny Dexter MI 21 53 28:08 9:05/M
8 Anne Lawrence Dexter MI 22 54 28:13 9:06/M
9 Stefanie Fluke Chesterfield MI 20 62 28:35 9:13/M
10 Sarah Mozdrzech Macomb MI 23 82 29:19 9:27/M
11 Darcy Silvi Milford MI 24 108 30:15 9:45/M
12 Vivian Yu Ann Arbor MI 23 109 30:16 9:46/M
13 Lindsey Schmuker Taylor MI 23 110 30:16 9:46/M
14 Nikila Ravi Grosse Pointe Shores MI 22 112 30:26 9:49/M
15 Lauren Pesta Trenton MI 22 137 31:09 10:03/M
16 Jennifer Vyskocil Grand Rapid MI 21 175 33:31 10:49/M
17 Shelby Fordt Marine City MI 22 191 34:15 11:03/M
18 Katherine Hames-Zubi Bloomfield MI 21 215 35:27 11:26/M
19 Mary Hirt Saline MI 20 218 35:33 11:28/M
20 Julia Gankin Ypsilanti CA 24 255 38:07 12:18/M
21 Anne Drolet Clarkston MI 21 303 40:47 13:09/M
22 Kailee Peraino Clinton Township MI 22 397 46:36 15:02/M
23 Shelby Pushies Woodhaven MI 22 427 47:51 15:26/M
24 Olivia Vancil Roseville MI 22 473 51:56 16:45/M
25 Megan Labbate Detroit MI 23 496 53:37 17:18/M
26 Audrey Burke Saint Clair Shores MI 23 519 55:49 18:00/M
27 Valentina Garcia 24 523 56:12 18:08/M
28 Christian Little 23 547 58:06 18:45/M
29 Oksana Fedorak Farnington Hill MI 24 593 1:16:48 24:46/M

Female 25 to 29

Place Name City Age Overall Total Time Pace
1 Stefanie Heyser St. Clair Shores MI 25 4 23:52 7:42/M
2 Jennifer Kerr Taylor MI 28 8 25:11 8:07/M
3 Alicia Bennett New Baltimore MI 27 11 25:18 8:10/M
4 Ashley Steiner Waterford MI 26 14 25:31 8:14/M
5 Jennifer Whiteside Fiebelkorn Auburn Hills MI 27 16 25:45 8:18/M
6 Gabrielle Popp Wyandotte MI 27 24 26:57 8:42/M
7 Lauren Janice Naples FL 27 32 27:25 8:51/M
8 Jennifer Lovequist Royal Oak MI 28 44 27:51 8:59/M
9 Amy Nonhof Grosse Pointe Park MI 29 49 27:59 9:02/M
10 Houda Guilloz Wyandotte MI 29 57 28:16 9:07/M
11 Chelsea Cracraft Plymouth MI 26 70 29:04 9:23/M
12 Reena Dollente Sterling Heights MI 25 91 29:45 9:36/M
13 Katie Minahan Detroit MI 26 106 30:14 9:45/M
14 Corie Reeck Royal Oak MI 26 122 30:49 9:56/M
15 Debbie Amatangelo Shelby Twp MI 28 123 30:50 9:57/M
16 Katherine Hinkson 26 126 30:53 9:58/M
17 Christine Muscat Detroit MI 25 128 30:58 9:59/M
18 Stefanie Hilton Washington MI 25 134 31:05 10:02/M
19 Katherine Dallacqua Rochester Hills MI 27 144 31:40 10:13/M
20 Justine Fritz Wyandotte MI 26 157 32:26 10:28/M
21 Veronica Remirez-Paredes Lincoln Park MI 29 158 32:27 10:28/M
22 Amber Toole Ann Arbor MI 26 160 32:30 10:29/M
23 Hannah Simmons Royal Oak MI 29 166 32:49 10:35/M
24 Kathryn Kline Shelby Township MI 29 172 33:11 10:42/M
25 Thilini Poramba-Liyanage Canton MI 28 187 34:05 11:00/M
26 Danielle Bancroft Ferndale MI 28 189 34:06 11:00/M
27 Victoria Groves Waterford MI 25 190 34:13 11:02/M
28 Anna Moreno White Lake MI 26 193 34:19 11:04/M
29 Kati Shearer Grosse Ile MI 28 201 34:51 11:15/M
30 Alexandra Violante Oxford MI 27 205 35:02 11:18/M
31 Jenny Trotta Troy MI 25 211 35:15 11:22/M
32 Leslie Domlovil Farmington Hills MI 29 225 36:29 11:46/M
33 Jennifer Miles Ypsilanti MI 26 231 36:46 11:52/M
34 Julian Zube Saint Clair Shores MI 26 232 36:52 11:54/M
35 Dana Brown Allen Park MI 29 238 37:36 12:08/M
36 Rachel Gorr Highland Park IL 27 254 38:07 12:18/M
37 Pamela Mason Taylor MI 27 256 38:08 12:18/M
38 Sara Madsen Southgate MI 28 282 39:38 12:47/M
39 Margaret Grubb Ann Arbor MI 29 289 39:56 12:53/M
40 Jessica Hirsh Ann Arbor MI 29 290 39:56 12:53/M
41 Suzie Darany Royal Oak MI 28 297 40:12 12:58/M
42 Jouhaina Bazzi Dearborn Heights MI 26 300 40:37 13:06/M
43 Justine Geidosch Ann Arbor MI 29 302 40:40 13:07/M
44 Ashley Hurley Berkley MI 27 306 41:07 13:16/M
45 Rebecca Foresta Livonia MI 27 356 43:58 14:11/M
46 Nicole MacLeod Sterling Hgts MI 25 359 44:07 14:14/M
47 Melissa Wolin Ann Arbor MI 28 368 44:25 14:20/M
48 Abigail Fournier Redford MI 27 371 44:41 14:25/M
49 Courtney Malinowski Allen Park MI 27 378 45:23 14:38/M
50 Kara Helgemo White Lake MI 26 386 45:55 14:49/M
51 Kate Clark Wyandotte MI 28 426 47:49 15:25/M
52 Renika Foster Detroit MI 29 436 48:33 15:40/M
53 Jennifer Cobb Grosse Pointe Woods MI 28 443 49:49 16:04/M
54 Patty Woodruff Dearborn MI 28 448 50:28 16:17/M
55 Krystyna Kinsman Sterling Heights MI 25 472 51:49 16:43/M
56 Julie Foley New Hudosn MI 29 505 54:22 17:32/M
57 Tara Tesauro Commerce Twp MI 28 514 55:24 17:52/M
58 Kristen Tesauro Farmington Hills MI 25 515 55:25 17:53/M
59 Amelia Burke Detroit MI 28 518 55:48 18:00/M
60 Valentina Pettway Southfield MI 29 545 57:59 18:42/M
61 Lisa Garcia Lincoln Park MI 27 572 1:03:01 20:20/M
62 Tiana Booth Oak Park IL 29 590 1:12:37 23:25/M

Female 30 to 34

Place Name City Age Overall Total Time Pace
1 Autumn Ochoa Fraser MI 33 5 24:29 7:54/M
2 Tammy Hess Dearborn Heights MI 31 6 24:35 7:56/M
3 Julie Kenar Shelby Township MI 30 9 25:11 8:07/M
4 Molly Madigan Southgate MI 34 10 25:17 8:09/M
5 Lisa Stevenson Goodrich MI 33 15 25:33 8:15/M
6 Michelle Dorsey Ann Arbor MI 34 22 26:45 8:38/M
7 Rebeca Hypnar Canton MI 30 26 26:59 8:42/M
8 Andrea O'Donnell Grosse Ile MI 32 36 27:35 8:54/M
9 Raquel Huffman Ypsilanti MI 32 38 27:40 8:55/M
10 Kelly Bryce Royal Oak MI 30 51 28:06 9:04/M
11 Melissa Wagasy Royal Oak MI 33 55 28:16 9:07/M
12 Sharon Chapp Wolverine Lake MI 31 60 28:21 9:09/M
13 Meaghan Kuzniak Belle River ON 33 61 28:27 9:11/M
14 Stefanie Weir Livonia MI 31 66 28:45 9:16/M
15 Lauren Baker Wixom MI 30 78 29:17 9:27/M
16 Tiffany Van Hemm Troy MI 31 79 29:18 9:27/M
17 Shannon Hannon La Porte IN 31 85 29:22 9:28/M
18 Lauren Snyder Ypsilanti MI 30 88 29:28 9:30/M
19 Liza Ann Dela Paz Shelby Township MI 33 89 29:34 9:32/M
20 Carmen Soucie Wyandotte MI 32 92 29:47 9:36/M
21 Jillian O'Leary Westland MI 32 100 30:03 9:42/M
22 Emily Fetters Livonia MI 33 104 30:10 9:44/M
23 Anna Dela Paz Dearborn MI 34 111 30:22 9:48/M
24 Amanda Andrews Shelby Township MI 32 113 30:32 9:51/M
25 Bailey Oland Walled Lake MI 32 114 30:33 9:51/M
26 Laura Holladay Ann Arbor MI 34 117 30:36 9:52/M
27 Erin Buddie Macomb MI 31 121 30:45 9:55/M
28 Mary Booker Grosse Ile MI 32 129 30:58 9:59/M
29 Melissa Waldie Bay City MI 32 139 31:21 10:07/M
30 Trisha Asser Ann Arbor MI 32 140 31:28 10:09/M
31 Andrea Agboka Pontiac MI 34 142 31:39 10:13/M
32 Kristin Rorick Chesterfield MI 33 146 31:42 10:14/M
33 Melanie Brown Romulus MI 32 149 31:49 10:16/M
34 Lindsay West Warren MI 31 154 32:09 10:22/M
35 Julie Longo 31 183 33:58 10:57/M
36 Karen Sivwright Rochester Hills MI 32 194 34:25 11:06/M
37 Allison Piippo Ypsilanti MI 31 197 34:38 11:10/M
38 Jayme Monroe Northville MI 34 226 36:30 11:46/M
39 Martha Helminen Teoy MI 32 236 37:18 12:02/M
40 Kristen Ryder Gibraltar MI 32 240 37:38 12:08/M
41 Beth Byrd Lincoln Park MI 33 246 37:56 12:14/M
42 Samantha Woll Detroit MI 30 263 38:25 12:24/M
43 Jennifer Turner Northville MI 31 269 38:42 12:29/M
44 Michelle Burkhard Midland MI 34 278 39:21 12:42/M
45 Candice Chruscial Belleville MI 34 288 39:55 12:53/M
46 Allison Janocha Shaker Heights OH 33 308 41:12 13:17/M
47 Barbara Turner Garden City MI 34 312 41:20 13:20/M
48 Heather Quinlan Sterling Heights MI 32 317 41:30 13:23/M
49 Manisha Agarwal Canton MI 32 319 41:39 13:26/M
50 Melynda Green Detroit MI 32 320 41:42 13:27/M
51 Sandra Maloney Grosse Pointe Farms MI 34 330 42:20 13:39/M
52 Jamie Rose Woodhaven MI 34 351 43:33 14:03/M
53 Nicole Nagy Ferndale MI 32 363 44:14 14:16/M
54 Zerrin Yilmaz Ann Arbor MI 30 365 44:17 14:17/M
55 Laura Garling Dearborn MI 31 372 44:47 14:27/M
56 Elizabeth Janocha Shaker Heights OH 32 387 45:56 14:49/M
57 Robin Rautio Sterling Hgts MI 33 393 46:07 14:53/M
58 Kenyatta Juniel Detroit MI 30 408 47:01 15:10/M
59 Kimberly Dann St Clair Shores MI 32 414 47:08 15:12/M
60 Linsday Cleveland Royal Oak MI 32 415 47:08 15:12/M
61 Tanika Rucker Detroit MI 34 416 47:08 15:12/M
62 Jennifer Diegel Warren MI 34 425 47:48 15:25/M
63 Jennifer Bishop Mason MI 34 431 48:18 15:35/M
64 Nikki Eller Troy MI 34 434 48:28 15:38/M
65 Chonda Carstarphen Southfield MI 33 444 50:01 16:08/M
66 Cathy Poslaiko Northville MI 30 447 50:27 16:16/M
67 Samantha Johnsonbaugh Roseville MI 32 451 50:51 16:24/M
68 Audrey Kanczuzewski Troy MI 34 453 51:04 16:28/M
69 Erisa Galgoci Fenton MI 30 455 51:13 16:31/M
70 Mary Placido Dearborn MI 32 457 51:17 16:33/M
71 Kennetha Mentor Troy MI 32 478 52:06 16:48/M
72 Michelle Nighbert Warren MI 32 480 52:18 16:52/M
73 Nicole Conklin Warren MI 33 486 52:59 17:05/M
74 Pam Dost Bridgeport MI 30 489 53:04 17:07/M
75 Andrea Gibbs Southfield MI 31 491 53:16 17:11/M
76 Stephanie Gibbs Southfield MI 33 492 53:19 17:12/M
77 Michelle Michalak Ferndale MI 33 506 54:29 17:35/M
78 Carolyn Bucci Saint Clair Shores MI 33 507 54:31 17:35/M
79 Kimberly Millstead Farmington MI 34 508 54:38 17:37/M
80 Meaghan Haas Dearborn MI 33 524 56:23 18:11/M
81 Kimberly Hallinan Newtown Square PA 33 534 56:55 18:22/M
82 Tanya Watson Farmington Hills MI 33 539 57:00 18:23/M
83 Valerie Dittenber Madison Heights MI 31 540 57:00 18:23/M
84 Errica Bouie Whitelake MI 30 541 57:01 18:24/M
85 Jennifer Garcia Lincoln Park MI 32 543 57:34 18:34/M
86 Jamie Vollick Clinton Twp MI 30 552 58:22 18:50/M
87 Nannette Meyette Clinton Township MI 34 553 58:23 18:50/M
88 Monica Fischman Southfield MI 32 555 58:32 18:53/M
89 Megan Fuhlman Wixom MI 32 564 1:01:15 19:45/M
90 Jennifer Cichowlas Dearborn MI 33 565 1:01:31 19:51/M

Female 35 to 39

Place Name City Age Overall Total Time Pace
1 Adrienne Desrocher Chesterfield MI 37 13 25:23 8:11/M
2 Choi Palms-Cohen Detroit MI 36 18 26:02 8:24/M
3 Natasha Bacheyie Detroit MI 35 23 26:52 8:40/M
4 Frances Wood Royal Oak MI 38 28 27:04 8:44/M
5 Dana Vespremi Ann Arbor MI 38 31 27:19 8:49/M
6 Kelly Henderson Detroit MI 37 39 27:42 8:56/M
7 Kristin Golden Royal Oak MI 35 45 27:51 8:59/M
8 Maria Birkett Madison Heights MI 36 48 27:59 9:02/M
9 Eva Johnson Dexter MI 35 58 28:18 9:08/M
10 Aimee Bronson Allendale MI 39 64 28:39 9:15/M
11 Beth Allen Newport MI 36 65 28:44 9:16/M
12 Gloria Lam Ann Arbor MI 39 69 29:02 9:22/M
13 Amber Williamson Macomb MI 37 76 29:10 9:25/M
14 Asma Mehboob Rockwood MI 35 83 29:20 9:28/M
15 Holly Olszewski Traverse City MI 39 84 29:21 9:28/M
16 Kelly Jost Plymouth MI 36 86 29:25 9:29/M
17 Janet Catalan Michigan MI 38 87 29:26 9:30/M
18 Heather Robinson Fowlerville MI 37 90 29:36 9:33/M
19 Sheila Fernandez Cant MI 37 94 29:51 9:38/M
20 Karen Coppens Northville MI 38 98 29:56 9:39/M
21 Jennifer Ottinger Macomb MI 35 107 30:14 9:45/M
22 Sheri Sparkman Novi MI 36 115 30:34 9:52/M
23 Amy Latka Macomb MI 36 125 30:53 9:58/M
24 Darlene Secord Macomb MI 38 127 30:54 9:58/M
25 Nicole Curry Allen Park MI 36 131 31:01 10:00/M
26 Michelle Williams Sterling Heights MI 35 150 31:52 10:17/M
27 Brannon Wickham Madison Heights MI 38 153 32:02 10:20/M
28 Kristine Blaszkowski Pinckney MI 37 162 32:39 10:32/M
29 Valerie Schave Clinton Township MI 36 180 33:41 10:52/M
30 Jennifer Lawson 48170 MI 38 181 33:48 10:54/M
31 Sommer Alexander Dearborn MI 36 184 33:59 10:58/M
32 Candice Washington Southfield MI 39 185 34:01 10:58/M
33 Melissa Moore Chesterfield MI 37 186 34:02 10:59/M
34 Molly Kallen Keego Harbor MI 35 192 34:17 11:04/M
35 Carey Berchulc Macomb Twp MI 39 195 34:30 11:08/M
36 Shariese Cole Detroit MI 35 196 34:32 11:08/M
37 Lisa Hogan Ypsilanti MI 37 200 34:50 11:14/M
38 Rebecca Watkins Saint Clair Shores MI 35 203 34:56 11:16/M
39 Jessica Mistak Plymouth MI 35 204 35:01 11:18/M
40 Paula Rivera-Kerr Dearborn MI 35 207 35:02 11:18/M
41 Kristi Warrington Garden City MI 37 209 35:06 11:19/M
42 Priscilla Folami Westland MI 36 217 35:32 11:28/M
43 Jennifer Nagy Belleville MI 37 220 35:54 11:35/M
44 Amy Cornwell Chesterfield Twp MI 39 227 36:38 11:49/M
45 Andrea Golombek Mt. Clemens MI 39 233 36:52 11:54/M
46 Jen Finkel Lincoln Park MI 38 243 37:39 12:09/M
47 Christine Brothers Washington MI 38 259 38:12 12:19/M
48 Christy Baginski Waterford MI 36 260 38:13 12:20/M
49 Christa Maes St Clair Shores MI 38 262 38:15 12:20/M
50 Christine Quirk Macomb Township MI 37 267 38:33 12:26/M
51 Nikita Willis Warren MI 37 271 38:44 12:30/M
52 Kafi Laramore-Josey Ann Arbor MI 39 275 38:59 12:35/M
53 Anna Noechel Troy MI 35 277 39:19 12:41/M
54 Cathy Ferguson Southgate MI 39 283 39:39 12:47/M
55 Connie May Detroit MI 38 284 39:46 12:50/M
56 Jill Ferris Sterling Heights MI 37 291 39:59 12:54/M
57 Jodi Hummel Suttons Bay MI 37 294 40:02 12:55/M
58 Tanesha Newby Westland MI 35 295 40:11 12:58/M
59 Kristine Krueger Sterling Heights MI 36 299 40:27 13:03/M
60 Sonia Parent Ypsilanti MI 39 309 41:16 13:19/M
61 Nicole Richmond Clinton Township MI 35 316 41:28 13:23/M
62 Felicia Chavez Farmington Hills MI 37 322 41:50 13:30/M
63 Christine Hutchings Ypsilanti MI 39 323 41:51 13:30/M
64 Amy Johnsonbaugh Warren MI 39 324 41:55 13:31/M
65 Leslie Wade Northville MI 36 328 42:05 13:35/M
66 Olivia Booker Wyandotte MI 37 329 42:10 13:36/M
67 Kerri Major Flint MI 35 337 42:36 13:45/M
68 Melissa Mitchell Sterling Heights MI 35 345 43:20 13:59/M
69 Genia Saumier Jackson MI 37 348 43:24 14:00/M
70 Gretchen Vasquez Allen Park MI 36 366 44:20 14:18/M
71 Amy Dober Romulus MI 35 367 44:21 14:18/M
72 Jackie Murray Chesterfield MI 39 369 44:31 14:22/M
73 Crystal Davis Walled Lake MI 36 381 45:35 14:42/M
74 Melissa Yonemura Dearborn MI 36 390 45:59 14:50/M
75 Tricia Llewellyn Troy MI 37 392 46:00 14:50/M
76 Jennifer Rogers Rockwood MI 35 396 46:29 15:00/M
77 Jaimee Szczotka Warren MI 38 398 46:36 15:02/M
78 Patricia Bill Warren MI 35 402 46:51 15:07/M
79 Aimee Bingham Grass Lake MI 38 404 46:56 15:08/M
80 Stephanie Menzo Royal Oak MI 35 422 47:38 15:22/M
81 Jennifer Berkholz Warren MI 38 423 47:48 15:25/M
82 Barbara Archibald Harper Woods MI 38 428 48:06 15:31/M
83 Kimmie Williams Warren MI 38 435 48:33 15:40/M
84 Latanya Robinson Detroit MI 39 437 49:22 15:55/M
85 Kelli Pruett Detroit MI 36 445 50:21 16:15/M
86 Laticia Grant Westland MI 37 452 50:51 16:24/M
87 Jenny Coon Charlotte MI 37 497 53:53 17:23/M
88 Tammy Scott Canton MI 37 501 53:56 17:24/M
89 Lindsey Butzin Belleville MI 35 503 54:21 17:32/M
90 Heather Paschal Southfield MI 35 509 54:59 17:44/M
91 Demetria Bradley Bloomfield Hills MI 35 510 55:01 17:45/M
92 Heidi Reijm Detroit MI 35 511 55:12 17:48/M
93 Ebony Roberts Westland MI 38 513 55:19 17:51/M
94 Yahmi Nundley Inkster MI 35 521 56:08 18:06/M
95 Angela Fenderson Harper Woods MI 38 522 56:09 18:07/M
96 Kimberly Cummings Hamtramck MI 38 561 1:00:37 19:33/M
97 Lisa Black Wixom MI 36 570 1:02:01 20:00/M
98 Jessica Paris Hamtramck MI 35 579 1:04:36 20:50/M
99 Tiffany Maines Bloomington IL 35 587 1:12:28 23:23/M
100 Delea Pickens Detroit IL 38 594 1:16:51 24:47/M

Female 40 to 44

Place Name City Age Overall Total Time Pace
1 Mardell Wilson Bloomington IL 44 20 26:44 8:37/M
2 Heather Kelly Bloomfield MI 41 27 27:02 8:43/M
3 Jennifer Bowen Royal Oak MI 43 34 27:28 8:52/M
4 Wendy Clark Farmington Hills MI 42 35 27:29 8:52/M
5 Laurie Heline Royal Oak MI 40 37 27:37 8:55/M
6 Angelia Talaski Dearborn MI 41 40 27:48 8:58/M
7 Nancy Bencak Windsor ON 40 47 27:53 9:00/M
8 Janice Keith Ypsilanti MI 44 59 28:21 9:09/M
9 Pamela Pisha Shelby Township MI 41 63 28:35 9:13/M
10 Kristine Ferris Fowlerville MI 43 73 29:07 9:24/M
11 Rakuya Atrtis 42 96 29:53 9:38/M
12 Sarida Scott Detroit MI 42 101 30:04 9:42/M
13 Adrienne Velthoven Ypsilanti MI 43 102 30:06 9:43/M
14 Sarah Maynie Southfield MI 44 103 30:08 9:43/M
15 Malinda Myers Walled Lake MI 44 105 30:12 9:45/M
16 Amy Smith Novi MI 41 130 31:00 10:00/M
17 Gina Trahey-Romanuk Livonia MI 43 135 31:08 10:03/M
18 Bobbie Kinney Wayne OH 43 136 31:09 10:03/M
19 Sharry Bronson Ferndale MI 40 151 31:55 10:18/M
20 Kris Mason Saline MI 40 152 32:00 10:19/M
21 Lisa McNish Detroit MI 40 161 32:31 10:29/M
22 Andrea Johnson Royal Oak MI 40 163 32:43 10:33/M
23 Diana Maxwell Commerce Twp MI 44 164 32:48 10:35/M
24 Lea Bonds Trenton MI 44 168 32:54 10:37/M
25 Leah Greanya Brighton MI 40 169 33:01 10:39/M
26 Latonya Sellers Detroit MI 43 170 33:04 10:40/M
27 Jennifer Hurst Macomb MI 41 174 33:28 10:48/M
28 Shawn Bouda Royal Oak MI 40 177 33:35 10:50/M
29 Kristin Kouyoumjian Bloomfield Hills MI 44 198 34:41 11:11/M
30 Olive Sadia Brownstown MI 40 202 34:52 11:15/M
31 Rebecca Frieseman Ann Arbor MI 44 214 35:23 11:25/M
32 Peggy Babcock Novi MI 41 224 36:27 11:45/M
33 Jennifer Fleming Howell MI 40 230 36:45 11:51/M
34 Renee Kidd Detroit MI 40 237 37:27 12:05/M
35 Tracy Grantham Gibraltar MI 41 239 37:37 12:08/M
36 Jen Mendelssohn Normal IL 41 242 37:39 12:09/M
37 Amy Castle Sterling Heights MI 42 249 38:02 12:16/M
38 Jacqueline Hourigan Northville MI 41 253 38:06 12:17/M
39 Catherine Clipper Lincoln Park MI 40 258 38:11 12:19/M
40 Jennifer Burdick Grand Blanc MI 41 270 38:43 12:29/M
41 Quin Jones Dearborn MI 42 274 38:58 12:34/M
42 Nicole O'Hara Grosse Pointe Woods MI 40 276 39:06 12:37/M
43 Lori Walker Southfield MI 43 280 39:25 12:43/M
44 Julie Birchmeier Milan MI 42 285 39:48 12:50/M
45 Lori Halloway Saline MI 44 286 39:51 12:51/M
46 Nikki Peddycord Chesterfield MI 40 293 40:01 12:55/M
47 Nicole Breadon Clarkston MI 41 298 40:25 13:02/M
48 Caren King Macomb MI 41 304 40:59 13:13/M
49 Tamara Mahoney- Clabon Detroit MI 43 305 41:01 13:14/M
50 Becky Haughey Clio MI 43 310 41:18 13:19/M
51 Alissa Terrell Redford MI 43 315 41:27 13:22/M
52 Jeni Jodway Westland MI 40 318 41:31 13:24/M
53 Nancy Richard Grosse Pointe Park MI 42 326 41:55 13:31/M
54 Dana Harvey West Bloomfield MI 42 338 42:41 13:46/M
55 Marlin Page Detroit MI 43 339 42:41 13:46/M
56 Sharnae Coakley Lathrup Village MI 42 342 43:05 13:54/M
57 Maggie Patton Ferndale MI 43 344 43:06 13:54/M
58 Tammy Parham Royal Oak MI 40 346 43:24 14:00/M
59 Nikki Call Oak Park MI 42 347 43:24 14:00/M
60 Tinisha Alexander Detroit MI 41 354 43:46 14:07/M
61 Donna Barnett New Hudson MI 40 358 44:06 14:14/M
62 Amy Knoles Flat Rock MI 40 370 44:38 14:24/M
63 Julia Daniel Walkuski Dearborn Heights MI 44 373 44:48 14:27/M
64 Sarah Gallagher Saline MI 44 375 45:02 14:32/M
65 Patrice Arend Grosse Pointe Park MI 44 379 45:24 14:39/M
66 Holly Gullekson Dexter MI 40 380 45:28 14:40/M
67 Kelly Riegel-Green Royal Oak MI 41 382 45:45 14:45/M
68 Theresa Novicki New Boston MI 41 384 45:54 14:48/M
69 Faith Drain Detroit MI 40 389 45:58 14:50/M
70 Evelyn Vrsek Whitmore Lake MI 40 401 46:45 15:05/M
71 Helen Kessler-Huffman Romulus MI 41 403 46:55 15:08/M
72 Rochelle Vrsek Whitmore Lake MI 40 409 47:01 15:10/M
73 Kristina Soave Novi MI 44 411 47:05 15:11/M
74 Charlene Taylor Pontiac MI 44 413 47:06 15:12/M
75 Jill Brumley South Rockwood MI 42 419 47:22 15:17/M
76 Rachel Demmon Saint Clair Shores MI 40 424 47:48 15:25/M
77 Franzetta Berryhill Inkster MI 44 432 48:21 15:36/M
78 Jamee Zielke Whitmore Lake MI 42 433 48:25 15:37/M
79 Sarah Wedepohl Huntington Wooods MI 42 439 49:33 15:59/M
80 Belinda Stewart Farmington Hills MI 41 442 49:48 16:04/M
81 Adrienne Conner Holly MI 40 454 51:11 16:31/M
82 V. Thandi Sulé Ann Arbor MI 40 462 51:21 16:34/M
83 Anita Davis Cook Detroit MI 43 467 51:31 16:37/M
84 Lisa Mitchell Detroit MI 41 471 51:44 16:41/M
85 Larina Robbins Novi MI 40 479 52:10 16:50/M
86 Lauri Hoger Clinton Twp MI 43 481 52:28 16:55/M
87 Michelle Freytag Clinton Twp MI 40 482 52:28 16:55/M
88 Zita Bozanic Waterford MI 41 487 53:03 17:07/M
89 Samantha Finch Inkster MI 41 488 53:04 17:07/M
90 Marsha Reid Howell MI 43 490 53:04 17:07/M
91 Wanda Cook Detroit MI 41 499 53:54 17:23/M
92 Lisa Wess Wayne MI 44 500 53:55 17:24/M
93 Tameka Hogains Eastpointe MI 41 502 54:01 17:25/M
94 Patrice Sutton Southfield MI 41 512 55:14 17:49/M
95 Carol Barber Clarkston MI 44 517 55:46 17:59/M
96 Kristina Haas Dearborn MI 42 525 56:24 18:12/M
97 Sudha Sadasivan Troy MI 40 528 56:35 18:15/M
98 Tanya Troy Detroit MI 44 529 56:35 18:15/M
99 Nichelle Craig Santa Clara CA 43 535 56:56 18:22/M
100 Jessica Harps Redford MI 42 537 56:57 18:22/M
101 Kecia Humes Detroit MI 42 538 56:58 18:23/M
102 Theresa Jackson Farmington Hills MI 44 544 57:49 18:39/M
103 Michelle Lee Detroit MI 42 546 58:01 18:43/M
104 Chequeta McCree Detroit MI 43 549 58:16 18:48/M
105 April Jones Okemos MI 42 550 58:17 18:48/M
106 Julie Gallagher Sylvan Lake MI 44 551 58:17 18:48/M
107 Rosalyn Jackson Detroit MI 41 562 1:00:46 19:36/M
108 Bonnie Weatherholt Orchard Lake MI 44 568 1:01:33 19:51/M
109 Cheryl Tash Hamtramck MI 40 577 1:04:32 20:49/M

Female 45 to 49

Place Name City Age Overall Total Time Pace
1 Michele Keller Leslie MI 46 17 25:57 8:22/M
2 Kimberly Lodge Pleasant Ridge MI 47 21 26:44 8:37/M
3 Connie Szymczak Rockford MI 48 30 27:16 8:48/M
4 Christine Maloney Dearborn MI 47 33 27:26 8:51/M
5 Kim Grodus St Clair Shores MI 45 46 27:53 9:00/M
6 Dawn King Southfield MI 47 56 28:16 9:07/M
7 Annamarie Mondro Pinckney MI 45 71 29:06 9:23/M
8 Aurelie Saigh Grosse Pointe MI 48 72 29:07 9:24/M
9 Karen Tajer Northville MI 46 75 29:09 9:24/M
10 Amy Ryntz Saint Clair Shores MI 47 77 29:10 9:25/M
11 Karen Richtet Canton MI 48 95 29:52 9:38/M
12 Karin Stahl Troy MI 49 99 30:02 9:41/M
13 Michele Hodges Grosse Pointe Park MI 46 116 30:35 9:52/M
14 Kimberly Regener Clinton Twp MI 47 118 30:38 9:53/M
15 Linda Taylor Birmingham MI 48 120 30:45 9:55/M
16 Kristin Hoy Farmington Hills MI 46 132 31:04 10:01/M
17 Alicia Terry West Bloomfield MI 48 145 31:41 10:13/M
18 Laura Bell Orion MI 47 147 31:48 10:15/M
19 Christine Mitchell Saline MI 49 156 32:25 10:27/M
20 Jamie Spaulding Canton MI 45 159 32:29 10:29/M
21 Kathy Shaw Ypsilanti MI 47 173 33:21 10:45/M
22 Pamela Hollingsworth Canton MI 49 179 33:40 10:52/M
23 Linda Weber Rives Junction MI 48 182 33:52 10:55/M
24 Christine Koch Birmingham MI 45 188 34:06 11:00/M
25 Angela Day Detroit MI 48 199 34:47 11:13/M
26 Laura Fluke Chesterfield MI 47 210 35:12 11:21/M
27 Lori Trezona Royal Oak MI 47 212 35:19 11:24/M
28 Susan Paynter Macomb MI 45 216 35:30 11:27/M
29 April Royster Detroit MI 45 219 35:35 11:29/M
30 Sonya Ellis Detroit MI 48 221 36:11 11:40/M
31 Kelley Minefield Southfield MI 48 223 36:26 11:45/M
32 Mary Knoles Grosse Ile MI 49 229 36:42 11:50/M
33 Carla Patrick-Fagan Novi MI 45 234 36:53 11:54/M
34 Collette Fung Bloomington IL 45 241 37:39 12:09/M
35 Dawn Marshall Grosse Ile MI 47 252 38:06 12:17/M
36 Diane Lawniczak Royal Oak MI 49 264 38:26 12:24/M
37 Cheryl Henry Livonia MI 46 266 38:31 12:25/M
38 Christine Roberts Riverview MI 47 272 38:46 12:30/M
39 Vickie Alford Bennington IN 45 273 38:56 12:34/M
40 Rochelle Wall Pontiac MI 47 279 39:23 12:42/M
41 Lynn Gross Grosse Pointe Farms MI 48 287 39:51 12:51/M
42 Anne Santori Shelby Township MI 47 313 41:20 13:20/M
43 Michelle Mich Rochester Hills MI 45 314 41:22 13:21/M
44 Sarah Monahan Grosse Pointe Park MI 45 325 41:55 13:31/M
45 Cynthia Rucker Southfield MI 49 327 41:56 13:32/M
46 Dani McAdams Charlotte MI 47 334 42:33 13:44/M
47 Kija Gray Detroit MI 45 335 42:33 13:44/M
48 Joanne Gondert Troy MI 48 341 42:53 13:50/M
49 Lisa Deshantz-Cook Wyandotte MI 46 343 43:06 13:54/M
50 Angela Kelley Plymouth MI 45 352 43:42 14:06/M
51 Candace Robinson Novi MI 49 355 43:47 14:07/M
52 Malinda Jensen Redford MI 47 391 46:00 14:50/M
53 Marybeth Ankofski Livonia MI 48 412 47:05 15:11/M
54 Kristy Blake Westland MI 45 429 48:09 15:32/M
55 Marchan Jackson Farmington Hills MI 46 446 50:24 16:15/M
56 Tina Herzog West Bloomfield MI 46 461 51:20 16:34/M
57 Dina Kenkel West Bloomfield MI 47 463 51:21 16:34/M
58 Alessandra Soave Farmington Hills MI 47 464 51:23 16:35/M
59 Tracey McCoy Buda TX 49 485 52:37 16:58/M
60 Sheila Murphy Howell MI 47 516 55:45 17:59/M
61 Charlene McNary Grosse Pointe Woods MI 45 527 56:30 18:14/M
62 Kristy Kelley Mercer Island WA 49 536 56:56 18:22/M
63 Holly Smith 47 548 58:07 18:45/M
64 Pamela Roxborough Shelby Townhip MI 45 566 1:01:32 19:51/M
65 Joann Fredrikson Royal Oak MI 48 569 1:01:34 19:52/M
66 Amy Money Madison Heights MI 45 584 1:07:05 21:38/M

Female 50 to 54

Place Name City Age Overall Total Time Pace
1 Laura Wright Tecumsah MI 53 80 29:18 9:27/M
2 Tracy Handler Rochester Hills MI 51 124 30:53 9:58/M
3 Jacqueline Green Farmington Hills MI 50 138 31:10 10:03/M
4 Ann Marie Koch St. Clair Shores MI 54 141 31:30 10:10/M
5 Gretchen Driskell Saline MI 54 148 31:48 10:15/M
6 Cheryl Davis Commerce Twp MI 53 155 32:22 10:26/M
7 Debbi Glomski Saint Clair Shores MI 53 167 32:51 10:36/M
8 Lynda Hicks Detroit MI 52 176 33:31 10:49/M
9 Susan Schucker Grosse Pointe Shores MI 52 178 33:39 10:51/M
10 Patricia Greenwood Farmington Hills MI 51 206 35:02 11:18/M
11 Sue Campbell Novi MI 52 245 37:48 12:12/M
12 Debora Sims Commerce MI 54 296 40:12 12:58/M
13 Elizabeth Willoughby Birmingham MI 54 301 40:39 13:07/M
14 Fran Buchko Wyandotte MI 52 311 41:18 13:19/M
15 Verna Rochon Southfield MI 51 321 41:46 13:28/M
16 Jennifer Clements Detroit MI 50 331 42:22 13:40/M
17 Karen Howe Northville Twp MI 52 332 42:23 13:40/M
18 Edie Shelton Southfield MI 51 336 42:34 13:44/M
19 Annabel Schrot Jackson MI 50 349 43:27 14:01/M
20 Annette Burk Grosse Ile MI 54 350 43:31 14:02/M
21 Monica Porter West Bloomfield MI 51 360 44:08 14:14/M
22 Lisa Hutchinson Farmington Hills MI 51 361 44:09 14:15/M
23 Katherine Russell Romeo MI 50 374 44:58 14:30/M
24 Lavette Anderson Detroit MI 52 377 45:09 14:34/M
25 Joye Patterson Wolverine Lake MI 54 383 45:50 14:47/M
26 Christine Tyl Livonia MI 51 388 45:56 14:49/M
27 Carrie Davis Lake Orion MI 52 395 46:16 14:55/M
28 Deb Roels Munith MI 53 420 47:22 15:17/M
29 Arnita Murray Detroit MI 52 449 50:28 16:17/M
30 Marchella Patillo Detroit MI 54 450 50:31 16:18/M
31 Mary Jo Fresard Grosse Pointe Woods MI 51 456 51:17 16:33/M
32 Cheryl Starks Detrot MI 52 466 51:31 16:37/M
33 Veronica Davis Detroit MI 54 470 51:39 16:40/M
34 Michelle Vancil Roseville MI 50 474 51:56 16:45/M
35 Julie Fresard Grosse Pointe Woods MI 51 475 52:03 16:47/M
36 Lori Burns 52 476 52:03 16:47/M
37 Carolyn Kinsman 52 477 52:05 16:48/M
38 Charlene Keller Westland MI 50 498 53:54 17:23/M
39 Jill Helgemo White Lake MI 52 504 54:21 17:32/M
40 Lorri Shezko Redford MI 53 520 55:59 18:04/M
41 Janice Bishop Detroit MI 52 526 56:25 18:12/M
42 Pamela Burke Grosse Pointe Woods MI 53 530 56:42 18:17/M
43 Claudette Harris Rochester Hills MI 54 531 56:47 18:19/M
44 Amanda Jackson-Jacobs Amherst NY 51 532 56:53 18:21/M
45 Suzy Daudlin Grosse Pointe Farms MI 51 557 1:00:04 19:23/M
46 April Kimpson Detroit MI 52 563 1:01:14 19:45/M
47 Toni Whitfield Southfield MI 52 576 1:04:23 20:46/M
48 Je Donna Dinges Grosse Pointe Park MI 50 582 1:07:01 21:37/M
49 Kindra Stienke Royal Oak MI 51 585 1:07:07 21:39/M
50 Kimbra Thorpe Laporte IN 52 586 1:07:46 21:52/M
51 Cathy Thorpe Madison Heights MI 54 589 1:12:36 23:25/M
52 Katherine James Detroit MI 50 591 1:12:40 23:26/M

Female 55 to 59

Place Name City Age Overall Total Time Pace
1 Diane Gavron Wixom MI 55 67 28:53 9:19/M
2 Gail Berry Detroit MI 57 93 29:50 9:37/M
3 Marie Ellis Washington MI 57 208 35:04 11:19/M
4 Gretchen Gasco Ann Arbor MI 57 213 35:20 11:24/M
5 Joann Roberts Detroit MI 57 222 36:15 11:42/M
6 Suzie Johnson Novi MI 56 244 37:47 12:11/M
7 Deb Martin Gladwin MI 58 248 38:02 12:16/M
8 Debbie Fahner Garden City MI 56 250 38:03 12:16/M
9 Deborah Tyler Detroit MI 56 281 39:38 12:47/M
10 Mary Wakefield 59 333 42:33 13:44/M
11 Yvonne Williams Atlanta GA 57 353 43:43 14:06/M
12 Kathy Koupal Northville MI 55 357 44:00 14:12/M
13 Molly Burke Atlanta GA 58 362 44:13 14:16/M
14 Maryanne Massman Livonia MI 56 385 45:55 14:49/M
15 Roseann Trotta Troy MI 55 394 46:09 14:53/M
16 Jane Morgan Detroit MI 55 438 49:32 15:59/M
17 Debbie Hilton Washington MI 59 440 49:40 16:01/M
18 Katie Jordan Detroit MI 59 441 49:47 16:04/M
19 Jill Poslaiko Dearborn MI 57 458 51:18 16:33/M
20 Patsy Walton Southfield MI 58 468 51:38 16:39/M
21 Debbie Walker Detroit MI 56 469 51:39 16:40/M
22 Susan Burke Troy MI 58 483 52:36 16:58/M
23 Debbie MacLeod Sterling Heights MI 57 484 52:37 16:58/M
24 Marcia Stringer Livonia MI 58 493 53:19 17:12/M
25 Connie Franklin Birmingham MI 59 494 53:21 17:13/M
26 Beverly Gimpert Grosse Pointe Woods MI 57 558 1:00:08 19:24/M
27 Mary Anne Burke Saint Clair Shores MI 57 559 1:00:32 19:32/M
28 Debra Campbell Shelby Township MI 55 567 1:01:32 19:51/M
29 Theresa Thorpe White Lake MI 55 588 1:12:35 23:25/M
30 Pollette Booth Harper Woods IL 55 592 1:13:43 23:47/M

Female 60 to 64

Place Name City Age Overall Total Time Pace
1 Linda Shaw Sylvania OH 60 68 29:00 9:21/M
2 Gwen Ogletree 62 97 29:53 9:38/M
3 Ann Murphy Saginaw MI 61 228 36:41 11:50/M
4 Elizabeth O'Donnell Grosse Ile MI 60 257 38:08 12:18/M
5 Ellen Sekerak Dearborn Heights, MI 61 261 38:14 12:20/M
6 Jean Hunt Canton MI 62 307 41:07 13:16/M
7 Grace Robinson Detroit MI 61 364 44:14 14:16/M
8 Mary Moret Detroit MI 60 376 45:02 14:32/M
9 Jane Wienner Bloomfield Hills MI 60 399 46:43 15:04/M
10 Diane Miller Auburn Hills MI 60 400 46:44 15:05/M
11 Helen Wohlgemuth Saline MI 62 417 47:16 15:15/M
12 Pat Dillon-Quinn Grosse Pointe Farms MI 64 459 51:19 16:33/M
13 Sylvia Fischman Brooklyn NY 63 554 58:32 18:53/M
14 Ella Modell Southfield MI 64 556 58:32 18:53/M
15 Gwen Springer Walled Lake MI 63 571 1:02:02 20:01/M
16 Deborah Michalak 60 578 1:04:33 20:49/M

Female 65 to 69

Place Name City Age Overall Total Time Pace
1 Doris Chelune Saline MI 69 340 42:49 13:49/M
2 Penny Howard Madison Heights MI 65 410 47:03 15:11/M
3 Vicki Vanbecelaere Clinton Township MI 65 421 47:35 15:21/M
4 Patricia Millstead Farmington Hills MI 66 495 53:35 17:17/M
5 Linda Robbins Nevada City CA 66 533 56:55 18:22/M
6 Nancy Johns Clawson MI 65 595 1:17:49 25:06/M

Female 70 to 74

Place Name City Age Overall Total Time Pace
1 Marquita Reese Detroit MI 71 119 30:43 9:55/M
2 Sandra Frankel Rochester NY 71 560 1:00:36 19:33/M

Female 75 to 79

Place Name City Age Overall Total Time Pace
1 Maryann Ledda W Bloomfield MI 77 465 51:27 16:36/M

Male 0-99

Place Name City Age Overall Total Time Pace
1 Unknown Partic. 3256 19 26:03 8:24/M
2 Kevin Morgan Northville MI 33 41 27:49 8:58/M
3 Travis Turner Northville MI 11 268 38:42 12:29/M
4 Christopher Bishop Mason MI 39 430 48:18 15:35/M
5 William Riegel-Green Royal Oak MI 12 580 1:05:41 21:11/M